<?xml version="1.0" encoding="UTF-8" standalone="no" ?>
<gpx xmlns="http://www.topografix.com/GPX/1/1" xmlns:xsi="http://www.w3.org/2001/XMLSchema-instance" xsi:schemaLocation="http://www.topografix.com/GPX/1/1 http://www.topografix.com/GPX/1/1/gpx.xsd" version="1.1" creator="VisuGPX - https://www.visugpx.com">
  <metadata>
    <name>Boucle de Vaux en passant par Maurens</name>
  </metadata>
  <wpt lat="43.46379" lon="1.79413">
    <ele>137.37272158536</ele>
    <name><![CDATA[DSCN0309]]></name>
    <link href="C:/Users/Vincent/AppData/Roaming/Garmin/BaseCamp/GeotaggedPhotos/DSCN0309.JPG"></link>
    <type><![CDATA[photo]]></type>
  </wpt>
  <wpt lat="43.4638" lon="1.79413">
    <ele>137.22726925937</ele>
    <name><![CDATA[DSCN0310]]></name>
    <link href="C:/Users/Vincent/AppData/Roaming/Garmin/BaseCamp/GeotaggedPhotos/DSCN0310.JPG"></link>
    <type><![CDATA[photo]]></type>
  </wpt>
  <wpt lat="43.46381" lon="1.79413">
    <ele>137.2363614169</ele>
    <name><![CDATA[DSCN0311]]></name>
    <link href="C:/Users/Vincent/AppData/Roaming/Garmin/BaseCamp/GeotaggedPhotos/DSCN0311.JPG"></link>
    <type><![CDATA[photo]]></type>
  </wpt>
  <wpt lat="43.45647" lon="1.83587">
    <ele>170.70667215983</ele>
    <name><![CDATA[DSCN0312]]></name>
    <link href="C:/Users/Vincent/AppData/Roaming/Garmin/BaseCamp/GeotaggedPhotos/DSCN0312.JPG"></link>
    <type><![CDATA[photo]]></type>
  </wpt>
  <trk>
    <name><![CDATA[D031 Vaux 05/12/2023 14:28:37]]></name>
    <trkseg>
      <trkpt lat="43.45711" lon="1.83622">
        <ele>137.80000305176</ele>
        <time>2023-12-19T08:34:53Z</time>
      </trkpt>
      <trkpt lat="43.45711" lon="1.83622">
        <ele>138</ele>
        <time>2023-12-19T08:34:54Z</time>
      </trkpt>
      <trkpt lat="43.45711" lon="1.83622">
        <ele>135.80000305176</ele>
        <time>2023-12-19T08:35:20Z</time>
      </trkpt>
      <trkpt lat="43.45709" lon="1.83625">
        <ele>136</ele>
        <time>2023-12-19T08:35:39Z</time>
      </trkpt>
      <trkpt lat="43.45708" lon="1.83627">
        <ele>136</ele>
        <time>2023-12-19T08:35:40Z</time>
      </trkpt>
      <trkpt lat="43.45706" lon="1.8363">
        <ele>136.19999694824</ele>
        <time>2023-12-19T08:35:43Z</time>
      </trkpt>
      <trkpt lat="43.45706" lon="1.83631">
        <ele>136.19999694824</ele>
        <time>2023-12-19T08:35:44Z</time>
      </trkpt>
      <trkpt lat="43.45693" lon="1.83666">
        <ele>136.60000610352</ele>
        <time>2023-12-19T08:36:08Z</time>
      </trkpt>
      <trkpt lat="43.45676" lon="1.83694">
        <ele>138</ele>
        <time>2023-12-19T08:36:29Z</time>
      </trkpt>
      <trkpt lat="43.45655" lon="1.83709">
        <ele>139.39999389648</ele>
        <time>2023-12-19T08:36:50Z</time>
      </trkpt>
      <trkpt lat="43.45634" lon="1.83725">
        <ele>140.80000305176</ele>
        <time>2023-12-19T08:37:10Z</time>
      </trkpt>
      <trkpt lat="43.45617" lon="1.83735">
        <ele>141</ele>
        <time>2023-12-19T08:37:28Z</time>
      </trkpt>
      <trkpt lat="43.45599" lon="1.83734">
        <ele>140.80000305176</ele>
        <time>2023-12-19T08:37:45Z</time>
      </trkpt>
      <trkpt lat="43.45578" lon="1.83718">
        <ele>139.39999389648</ele>
        <time>2023-12-19T08:38:04Z</time>
      </trkpt>
      <trkpt lat="43.45566" lon="1.83688">
        <ele>137.39999389648</ele>
        <time>2023-12-19T08:38:26Z</time>
      </trkpt>
      <trkpt lat="43.45555" lon="1.83653">
        <ele>135.60000610352</ele>
        <time>2023-12-19T08:38:50Z</time>
      </trkpt>
      <trkpt lat="43.45545" lon="1.8362">
        <ele>133.80000305176</ele>
        <time>2023-12-19T08:39:12Z</time>
      </trkpt>
      <trkpt lat="43.45528" lon="1.8359">
        <ele>132</ele>
        <time>2023-12-19T08:39:37Z</time>
      </trkpt>
      <trkpt lat="43.45511" lon="1.83576">
        <ele>131.39999389648</ele>
        <time>2023-12-19T08:39:56Z</time>
      </trkpt>
      <trkpt lat="43.45487" lon="1.83557">
        <ele>131.60000610352</ele>
        <time>2023-12-19T08:40:20Z</time>
      </trkpt>
      <trkpt lat="43.45462" lon="1.83539">
        <ele>132.19999694824</ele>
        <time>2023-12-19T08:40:44Z</time>
      </trkpt>
      <trkpt lat="43.45437" lon="1.8352">
        <ele>133</ele>
        <time>2023-12-19T08:41:07Z</time>
      </trkpt>
      <trkpt lat="43.45411" lon="1.83498">
        <ele>132.80000305176</ele>
        <time>2023-12-19T08:41:32Z</time>
      </trkpt>
      <trkpt lat="43.45404" lon="1.83488">
        <ele>132.39999389648</ele>
        <time>2023-12-19T08:41:41Z</time>
      </trkpt>
      <trkpt lat="43.45405" lon="1.83487">
        <ele>132.19999694824</ele>
        <time>2023-12-19T08:41:42Z</time>
      </trkpt>
      <trkpt lat="43.45414" lon="1.83459">
        <ele>133.39999389648</ele>
        <time>2023-12-19T08:42:03Z</time>
      </trkpt>
      <trkpt lat="43.45428" lon="1.83436">
        <ele>134.19999694824</ele>
        <time>2023-12-19T08:42:22Z</time>
      </trkpt>
      <trkpt lat="43.45446" lon="1.83409">
        <ele>134.60000610352</ele>
        <time>2023-12-19T08:42:45Z</time>
      </trkpt>
      <trkpt lat="43.45465" lon="1.83384">
        <ele>135.39999389648</ele>
        <time>2023-12-19T08:43:08Z</time>
      </trkpt>
      <trkpt lat="43.45484" lon="1.83357">
        <ele>136.19999694824</ele>
        <time>2023-12-19T08:43:32Z</time>
      </trkpt>
      <trkpt lat="43.45504" lon="1.83328">
        <ele>136.60000610352</ele>
        <time>2023-12-19T08:43:57Z</time>
      </trkpt>
      <trkpt lat="43.45524" lon="1.83294">
        <ele>136.60000610352</ele>
        <time>2023-12-19T08:44:24Z</time>
      </trkpt>
      <trkpt lat="43.45537" lon="1.83267">
        <ele>135.19999694824</ele>
        <time>2023-12-19T08:44:45Z</time>
      </trkpt>
      <trkpt lat="43.45546" lon="1.83239">
        <ele>134.39999389648</ele>
        <time>2023-12-19T08:45:04Z</time>
      </trkpt>
      <trkpt lat="43.45549" lon="1.83203">
        <ele>133.39999389648</ele>
        <time>2023-12-19T08:45:27Z</time>
      </trkpt>
      <trkpt lat="43.45551" lon="1.83167">
        <ele>132.80000305176</ele>
        <time>2023-12-19T08:45:49Z</time>
      </trkpt>
      <trkpt lat="43.45559" lon="1.83132">
        <ele>131.60000610352</ele>
        <time>2023-12-19T08:46:12Z</time>
      </trkpt>
      <trkpt lat="43.4557" lon="1.83104">
        <ele>130.60000610352</ele>
        <time>2023-12-19T08:46:33Z</time>
      </trkpt>
      <trkpt lat="43.45583" lon="1.8307">
        <ele>129.80000305176</ele>
        <time>2023-12-19T08:46:56Z</time>
      </trkpt>
      <trkpt lat="43.45594" lon="1.83035">
        <ele>128.39999389648</ele>
        <time>2023-12-19T08:47:19Z</time>
      </trkpt>
      <trkpt lat="43.45598" lon="1.82993">
        <ele>128.39999389648</ele>
        <time>2023-12-19T08:47:46Z</time>
      </trkpt>
      <trkpt lat="43.45598" lon="1.82956">
        <ele>128.39999389648</ele>
        <time>2023-12-19T08:48:10Z</time>
      </trkpt>
      <trkpt lat="43.45604" lon="1.82916">
        <ele>128.39999389648</ele>
        <time>2023-12-19T08:48:36Z</time>
      </trkpt>
      <trkpt lat="43.4561" lon="1.8289">
        <ele>128.80000305176</ele>
        <time>2023-12-19T08:48:55Z</time>
      </trkpt>
      <trkpt lat="43.45618" lon="1.82862">
        <ele>128.80000305176</ele>
        <time>2023-12-19T08:49:15Z</time>
      </trkpt>
      <trkpt lat="43.45624" lon="1.82835">
        <ele>129.19999694824</ele>
        <time>2023-12-19T08:49:35Z</time>
      </trkpt>
      <trkpt lat="43.45615" lon="1.82811">
        <ele>129</ele>
        <time>2023-12-19T08:49:54Z</time>
      </trkpt>
      <trkpt lat="43.45603" lon="1.82784">
        <ele>127</ele>
        <time>2023-12-19T08:50:16Z</time>
      </trkpt>
      <trkpt lat="43.45589" lon="1.82755">
        <ele>124.59999847412</ele>
        <time>2023-12-19T08:50:40Z</time>
      </trkpt>
      <trkpt lat="43.45576" lon="1.82725">
        <ele>121.80000305176</ele>
        <time>2023-12-19T08:51:03Z</time>
      </trkpt>
      <trkpt lat="43.4556" lon="1.8269">
        <ele>118.80000305176</ele>
        <time>2023-12-19T08:51:30Z</time>
      </trkpt>
      <trkpt lat="43.45549" lon="1.82665">
        <ele>115.80000305176</ele>
        <time>2023-12-19T08:51:49Z</time>
      </trkpt>
      <trkpt lat="43.45537" lon="1.82638">
        <ele>113</ele>
        <time>2023-12-19T08:52:11Z</time>
      </trkpt>
      <trkpt lat="43.45524" lon="1.82608">
        <ele>111.80000305176</ele>
        <time>2023-12-19T08:52:33Z</time>
      </trkpt>
      <trkpt lat="43.45516" lon="1.82572">
        <ele>110.40000152588</ele>
        <time>2023-12-19T08:52:57Z</time>
      </trkpt>
      <trkpt lat="43.45511" lon="1.8254">
        <ele>109.59999847412</ele>
        <time>2023-12-19T08:53:18Z</time>
      </trkpt>
      <trkpt lat="43.45506" lon="1.82505">
        <ele>108.40000152588</ele>
        <time>2023-12-19T08:53:41Z</time>
      </trkpt>
      <trkpt lat="43.45505" lon="1.8247">
        <ele>107.40000152588</ele>
        <time>2023-12-19T08:54:04Z</time>
      </trkpt>
      <trkpt lat="43.45505" lon="1.82442">
        <ele>107.40000152588</ele>
        <time>2023-12-19T08:54:23Z</time>
      </trkpt>
      <trkpt lat="43.45497" lon="1.82413">
        <ele>108</ele>
        <time>2023-12-19T08:54:44Z</time>
      </trkpt>
      <trkpt lat="43.4549" lon="1.82388">
        <ele>109.80000305176</ele>
        <time>2023-12-19T08:55:02Z</time>
      </trkpt>
      <trkpt lat="43.45487" lon="1.8237">
        <ele>111.59999847412</ele>
        <time>2023-12-19T08:55:19Z</time>
      </trkpt>
      <trkpt lat="43.45487" lon="1.82353">
        <ele>113.59999847412</ele>
        <time>2023-12-19T08:55:35Z</time>
      </trkpt>
      <trkpt lat="43.45483" lon="1.82336">
        <ele>115.59999847412</ele>
        <time>2023-12-19T08:55:52Z</time>
      </trkpt>
      <trkpt lat="43.4548" lon="1.82313">
        <ele>117.59999847412</ele>
        <time>2023-12-19T08:56:09Z</time>
      </trkpt>
      <trkpt lat="43.45476" lon="1.82285">
        <ele>119.80000305176</ele>
        <time>2023-12-19T08:56:30Z</time>
      </trkpt>
      <trkpt lat="43.45472" lon="1.82259">
        <ele>121.59999847412</ele>
        <time>2023-12-19T08:56:49Z</time>
      </trkpt>
      <trkpt lat="43.45468" lon="1.82231">
        <ele>124</ele>
        <time>2023-12-19T08:57:10Z</time>
      </trkpt>
      <trkpt lat="43.45464" lon="1.82204">
        <ele>126.19999694824</ele>
        <time>2023-12-19T08:57:30Z</time>
      </trkpt>
      <trkpt lat="43.45459" lon="1.82178">
        <ele>128.60000610352</ele>
        <time>2023-12-19T08:57:50Z</time>
      </trkpt>
      <trkpt lat="43.4546" lon="1.82173">
        <ele>129.19999694824</ele>
        <time>2023-12-19T08:57:54Z</time>
      </trkpt>
      <trkpt lat="43.4546" lon="1.82172">
        <ele>129.39999389648</ele>
        <time>2023-12-19T08:57:55Z</time>
      </trkpt>
      <trkpt lat="43.45465" lon="1.82145">
        <ele>131</ele>
        <time>2023-12-19T08:58:14Z</time>
      </trkpt>
      <trkpt lat="43.45477" lon="1.82118">
        <ele>132</ele>
        <time>2023-12-19T08:58:35Z</time>
      </trkpt>
      <trkpt lat="43.45499" lon="1.82091">
        <ele>132.39999389648</ele>
        <time>2023-12-19T08:59:01Z</time>
      </trkpt>
      <trkpt lat="43.45513" lon="1.82067">
        <ele>132.19999694824</ele>
        <time>2023-12-19T08:59:22Z</time>
      </trkpt>
      <trkpt lat="43.45515" lon="1.82037">
        <ele>132</ele>
        <time>2023-12-19T08:59:42Z</time>
      </trkpt>
      <trkpt lat="43.45519" lon="1.82003">
        <ele>131.39999389648</ele>
        <time>2023-12-19T09:00:04Z</time>
      </trkpt>
      <trkpt lat="43.4553" lon="1.81974">
        <ele>131.19999694824</ele>
        <time>2023-12-19T09:00:25Z</time>
      </trkpt>
      <trkpt lat="43.45541" lon="1.81946">
        <ele>131.60000610352</ele>
        <time>2023-12-19T09:00:46Z</time>
      </trkpt>
      <trkpt lat="43.45554" lon="1.81912">
        <ele>132</ele>
        <time>2023-12-19T09:01:11Z</time>
      </trkpt>
      <trkpt lat="43.45565" lon="1.8188">
        <ele>132.39999389648</ele>
        <time>2023-12-19T09:01:34Z</time>
      </trkpt>
      <trkpt lat="43.45577" lon="1.8184">
        <ele>132</ele>
        <time>2023-12-19T09:02:01Z</time>
      </trkpt>
      <trkpt lat="43.45586" lon="1.81804">
        <ele>131.39999389648</ele>
        <time>2023-12-19T09:02:25Z</time>
      </trkpt>
      <trkpt lat="43.45587" lon="1.81797">
        <ele>131.39999389648</ele>
        <time>2023-12-19T09:02:35Z</time>
      </trkpt>
      <trkpt lat="43.45587" lon="1.81792">
        <ele>131.60000610352</ele>
        <time>2023-12-19T09:02:38Z</time>
      </trkpt>
      <trkpt lat="43.45587" lon="1.8179">
        <ele>131.60000610352</ele>
        <time>2023-12-19T09:02:39Z</time>
      </trkpt>
      <trkpt lat="43.45587" lon="1.81789">
        <ele>131.60000610352</ele>
        <time>2023-12-19T09:02:40Z</time>
      </trkpt>
      <trkpt lat="43.45586" lon="1.81783">
        <ele>131.80000305176</ele>
        <time>2023-12-19T09:02:54Z</time>
      </trkpt>
      <trkpt lat="43.45587" lon="1.81781">
        <ele>131</ele>
        <time>2023-12-19T09:03:10Z</time>
      </trkpt>
      <trkpt lat="43.45587" lon="1.81779">
        <ele>131.60000610352</ele>
        <time>2023-12-19T09:03:11Z</time>
      </trkpt>
      <trkpt lat="43.45587" lon="1.81778">
        <ele>132</ele>
        <time>2023-12-19T09:03:12Z</time>
      </trkpt>
      <trkpt lat="43.45588" lon="1.81776">
        <ele>132.39999389648</ele>
        <time>2023-12-19T09:03:13Z</time>
      </trkpt>
      <trkpt lat="43.45588" lon="1.81775">
        <ele>132.39999389648</ele>
        <time>2023-12-19T09:03:14Z</time>
      </trkpt>
      <trkpt lat="43.45589" lon="1.81762">
        <ele>130.80000305176</ele>
        <time>2023-12-19T09:03:32Z</time>
      </trkpt>
      <trkpt lat="43.45589" lon="1.81762">
        <ele>129</ele>
        <time>2023-12-19T09:03:51Z</time>
      </trkpt>
      <trkpt lat="43.45589" lon="1.81763">
        <ele>132</ele>
        <time>2023-12-19T09:03:57Z</time>
      </trkpt>
      <trkpt lat="43.4559" lon="1.81762">
        <ele>128.60000610352</ele>
        <time>2023-12-19T09:04:07Z</time>
      </trkpt>
      <trkpt lat="43.4559" lon="1.81762">
        <ele>128</ele>
        <time>2023-12-19T09:04:09Z</time>
      </trkpt>
      <trkpt lat="43.4559" lon="1.81762">
        <ele>132</ele>
        <time>2023-12-19T09:04:14Z</time>
      </trkpt>
      <trkpt lat="43.45589" lon="1.81762">
        <ele>133.60000610352</ele>
        <time>2023-12-19T09:04:17Z</time>
      </trkpt>
      <trkpt lat="43.4559" lon="1.81762">
        <ele>131.39999389648</ele>
        <time>2023-12-19T09:04:39Z</time>
      </trkpt>
      <trkpt lat="43.4559" lon="1.81745">
        <ele>131.39999389648</ele>
        <time>2023-12-19T09:04:58Z</time>
      </trkpt>
      <trkpt lat="43.45592" lon="1.81706">
        <ele>130.19999694824</ele>
        <time>2023-12-19T09:05:25Z</time>
      </trkpt>
      <trkpt lat="43.45594" lon="1.81665">
        <ele>127.80000305176</ele>
        <time>2023-12-19T09:05:52Z</time>
      </trkpt>
      <trkpt lat="43.45595" lon="1.81623">
        <ele>125</ele>
        <time>2023-12-19T09:06:18Z</time>
      </trkpt>
      <trkpt lat="43.45596" lon="1.81578">
        <ele>122.40000152588</ele>
        <time>2023-12-19T09:06:46Z</time>
      </trkpt>
      <trkpt lat="43.45598" lon="1.81535">
        <ele>120.80000305176</ele>
        <time>2023-12-19T09:07:12Z</time>
      </trkpt>
      <trkpt lat="43.45594" lon="1.81498">
        <ele>119.40000152588</ele>
        <time>2023-12-19T09:07:35Z</time>
      </trkpt>
      <trkpt lat="43.45585" lon="1.81459">
        <ele>118.80000305176</ele>
        <time>2023-12-19T09:08:01Z</time>
      </trkpt>
      <trkpt lat="43.4558" lon="1.81423">
        <ele>119</ele>
        <time>2023-12-19T09:08:24Z</time>
      </trkpt>
      <trkpt lat="43.45576" lon="1.81387">
        <ele>118.59999847412</ele>
        <time>2023-12-19T09:08:48Z</time>
      </trkpt>
      <trkpt lat="43.45572" lon="1.81352">
        <ele>118.59999847412</ele>
        <time>2023-12-19T09:09:10Z</time>
      </trkpt>
      <trkpt lat="43.45568" lon="1.81317">
        <ele>118</ele>
        <time>2023-12-19T09:09:32Z</time>
      </trkpt>
      <trkpt lat="43.45555" lon="1.81291">
        <ele>117</ele>
        <time>2023-12-19T09:09:53Z</time>
      </trkpt>
      <trkpt lat="43.45533" lon="1.81269">
        <ele>116.19999694824</ele>
        <time>2023-12-19T09:10:16Z</time>
      </trkpt>
      <trkpt lat="43.4552" lon="1.81242">
        <ele>116</ele>
        <time>2023-12-19T09:10:37Z</time>
      </trkpt>
      <trkpt lat="43.4552" lon="1.81237">
        <ele>116.19999694824</ele>
        <time>2023-12-19T09:10:40Z</time>
      </trkpt>
      <trkpt lat="43.45526" lon="1.81214">
        <ele>116</ele>
        <time>2023-12-19T09:10:58Z</time>
      </trkpt>
      <trkpt lat="43.45529" lon="1.81187">
        <ele>116.19999694824</ele>
        <time>2023-12-19T09:11:15Z</time>
      </trkpt>
      <trkpt lat="43.45533" lon="1.81154">
        <ele>115.80000305176</ele>
        <time>2023-12-19T09:11:36Z</time>
      </trkpt>
      <trkpt lat="43.45538" lon="1.8112">
        <ele>115.80000305176</ele>
        <time>2023-12-19T09:11:57Z</time>
      </trkpt>
      <trkpt lat="43.45546" lon="1.8109">
        <ele>117.40000152588</ele>
        <time>2023-12-19T09:12:20Z</time>
      </trkpt>
      <trkpt lat="43.45551" lon="1.8107">
        <ele>120.59999847412</ele>
        <time>2023-12-19T09:12:38Z</time>
      </trkpt>
      <trkpt lat="43.45554" lon="1.81051">
        <ele>123.80000305176</ele>
        <time>2023-12-19T09:12:56Z</time>
      </trkpt>
      <trkpt lat="43.45555" lon="1.81023">
        <ele>126.40000152588</ele>
        <time>2023-12-19T09:13:17Z</time>
      </trkpt>
      <trkpt lat="43.45553" lon="1.81003">
        <ele>127.19999694824</ele>
        <time>2023-12-19T09:13:37Z</time>
      </trkpt>
      <trkpt lat="43.45554" lon="1.81002">
        <ele>127.40000152588</ele>
        <time>2023-12-19T09:13:54Z</time>
      </trkpt>
      <trkpt lat="43.45554" lon="1.81003">
        <ele>126.19999694824</ele>
        <time>2023-12-19T09:14:14Z</time>
      </trkpt>
      <trkpt lat="43.45554" lon="1.81003">
        <ele>129.19999694824</ele>
        <time>2023-12-19T09:14:23Z</time>
      </trkpt>
      <trkpt lat="43.45554" lon="1.81003">
        <ele>128.80000305176</ele>
        <time>2023-12-19T09:14:46Z</time>
      </trkpt>
      <trkpt lat="43.45554" lon="1.81003">
        <ele>128.19999694824</ele>
        <time>2023-12-19T09:15:09Z</time>
      </trkpt>
      <trkpt lat="43.45555" lon="1.81002">
        <ele>128.39999389648</ele>
        <time>2023-12-19T09:15:31Z</time>
      </trkpt>
      <trkpt lat="43.45554" lon="1.81003">
        <ele>129</ele>
        <time>2023-12-19T09:15:55Z</time>
      </trkpt>
      <trkpt lat="43.45553" lon="1.81">
        <ele>129</ele>
        <time>2023-12-19T09:16:12Z</time>
      </trkpt>
      <trkpt lat="43.45551" lon="1.80978">
        <ele>129.19999694824</ele>
        <time>2023-12-19T09:16:29Z</time>
      </trkpt>
      <trkpt lat="43.45548" lon="1.80954">
        <ele>129.39999389648</ele>
        <time>2023-12-19T09:16:46Z</time>
      </trkpt>
      <trkpt lat="43.45543" lon="1.80914">
        <ele>130.39999389648</ele>
        <time>2023-12-19T09:17:12Z</time>
      </trkpt>
      <trkpt lat="43.45539" lon="1.80878">
        <ele>130.80000305176</ele>
        <time>2023-12-19T09:17:35Z</time>
      </trkpt>
      <trkpt lat="43.45532" lon="1.80844">
        <ele>131</ele>
        <time>2023-12-19T09:17:57Z</time>
      </trkpt>
      <trkpt lat="43.4552" lon="1.8081">
        <ele>131</ele>
        <time>2023-12-19T09:18:20Z</time>
      </trkpt>
      <trkpt lat="43.45506" lon="1.80777">
        <ele>130.80000305176</ele>
        <time>2023-12-19T09:18:43Z</time>
      </trkpt>
      <trkpt lat="43.45488" lon="1.80745">
        <ele>130.60000610352</ele>
        <time>2023-12-19T09:19:08Z</time>
      </trkpt>
      <trkpt lat="43.45468" lon="1.80715">
        <ele>130.80000305176</ele>
        <time>2023-12-19T09:19:33Z</time>
      </trkpt>
      <trkpt lat="43.45445" lon="1.80684">
        <ele>130.80000305176</ele>
        <time>2023-12-19T09:20:00Z</time>
      </trkpt>
      <trkpt lat="43.45432" lon="1.80665">
        <ele>131.19999694824</ele>
        <time>2023-12-19T09:20:20Z</time>
      </trkpt>
      <trkpt lat="43.45427" lon="1.80656">
        <ele>131.19999694824</ele>
        <time>2023-12-19T09:20:33Z</time>
      </trkpt>
      <trkpt lat="43.45414" lon="1.80632">
        <ele>131</ele>
        <time>2023-12-19T09:20:54Z</time>
      </trkpt>
      <trkpt lat="43.45399" lon="1.80604">
        <ele>130.60000610352</ele>
        <time>2023-12-19T09:21:16Z</time>
      </trkpt>
      <trkpt lat="43.45384" lon="1.80576">
        <ele>128.60000610352</ele>
        <time>2023-12-19T09:21:37Z</time>
      </trkpt>
      <trkpt lat="43.45366" lon="1.80544">
        <ele>126.19999694824</ele>
        <time>2023-12-19T09:22:01Z</time>
      </trkpt>
      <trkpt lat="43.45347" lon="1.80511">
        <ele>126.19999694824</ele>
        <time>2023-12-19T09:22:26Z</time>
      </trkpt>
      <trkpt lat="43.4533" lon="1.80485">
        <ele>127.80000305176</ele>
        <time>2023-12-19T09:22:48Z</time>
      </trkpt>
      <trkpt lat="43.45322" lon="1.80474">
        <ele>128.80000305176</ele>
        <time>2023-12-19T09:22:59Z</time>
      </trkpt>
      <trkpt lat="43.45322" lon="1.80473">
        <ele>128.80000305176</ele>
        <time>2023-12-19T09:23:00Z</time>
      </trkpt>
      <trkpt lat="43.45321" lon="1.80472">
        <ele>129</ele>
        <time>2023-12-19T09:23:01Z</time>
      </trkpt>
      <trkpt lat="43.45319" lon="1.80468">
        <ele>129</ele>
        <time>2023-12-19T09:23:06Z</time>
      </trkpt>
      <trkpt lat="43.45318" lon="1.80467">
        <ele>129</ele>
        <time>2023-12-19T09:23:07Z</time>
      </trkpt>
      <trkpt lat="43.45318" lon="1.80466">
        <ele>129</ele>
        <time>2023-12-19T09:23:08Z</time>
      </trkpt>
      <trkpt lat="43.453" lon="1.80442">
        <ele>127.40000152588</ele>
        <time>2023-12-19T09:23:29Z</time>
      </trkpt>
      <trkpt lat="43.45275" lon="1.80411">
        <ele>125.40000152588</ele>
        <time>2023-12-19T09:23:56Z</time>
      </trkpt>
      <trkpt lat="43.45274" lon="1.80379">
        <ele>125.59999847412</ele>
        <time>2023-12-19T09:24:18Z</time>
      </trkpt>
      <trkpt lat="43.45282" lon="1.80352">
        <ele>126.40000152588</ele>
        <time>2023-12-19T09:24:37Z</time>
      </trkpt>
      <trkpt lat="43.45293" lon="1.80318">
        <ele>127.19999694824</ele>
        <time>2023-12-19T09:25:01Z</time>
      </trkpt>
      <trkpt lat="43.45297" lon="1.80311">
        <ele>128.19999694824</ele>
        <time>2023-12-19T09:25:18Z</time>
      </trkpt>
      <trkpt lat="43.45297" lon="1.80311">
        <ele>127.59999847412</ele>
        <time>2023-12-19T09:25:34Z</time>
      </trkpt>
      <trkpt lat="43.45297" lon="1.80311">
        <ele>130.60000610352</ele>
        <time>2023-12-19T09:25:41Z</time>
      </trkpt>
      <trkpt lat="43.45297" lon="1.80311">
        <ele>128.60000610352</ele>
        <time>2023-12-19T09:26:00Z</time>
      </trkpt>
      <trkpt lat="43.45297" lon="1.80311">
        <ele>128.60000610352</ele>
        <time>2023-12-19T09:26:19Z</time>
      </trkpt>
      <trkpt lat="43.45297" lon="1.80311">
        <ele>128.60000610352</ele>
        <time>2023-12-19T09:26:37Z</time>
      </trkpt>
      <trkpt lat="43.45297" lon="1.80311">
        <ele>128.80000305176</ele>
        <time>2023-12-19T09:26:58Z</time>
      </trkpt>
      <trkpt lat="43.45297" lon="1.80311">
        <ele>129.39999389648</ele>
        <time>2023-12-19T09:27:21Z</time>
      </trkpt>
      <trkpt lat="43.45297" lon="1.80311">
        <ele>129.19999694824</ele>
        <time>2023-12-19T09:27:44Z</time>
      </trkpt>
      <trkpt lat="43.45297" lon="1.80311">
        <ele>129.39999389648</ele>
        <time>2023-12-19T09:28:07Z</time>
      </trkpt>
      <trkpt lat="43.45297" lon="1.80311">
        <ele>129.39999389648</ele>
        <time>2023-12-19T09:28:34Z</time>
      </trkpt>
      <trkpt lat="43.45297" lon="1.80311">
        <ele>129.39999389648</ele>
        <time>2023-12-19T09:29:06Z</time>
      </trkpt>
      <trkpt lat="43.453" lon="1.80315">
        <ele>129.60000610352</ele>
        <time>2023-12-19T09:29:20Z</time>
      </trkpt>
      <trkpt lat="43.45301" lon="1.80316">
        <ele>129.60000610352</ele>
        <time>2023-12-19T09:29:21Z</time>
      </trkpt>
      <trkpt lat="43.45302" lon="1.80317">
        <ele>130</ele>
        <time>2023-12-19T09:29:22Z</time>
      </trkpt>
      <trkpt lat="43.45303" lon="1.80318">
        <ele>130</ele>
        <time>2023-12-19T09:29:23Z</time>
      </trkpt>
      <trkpt lat="43.45303" lon="1.80319">
        <ele>130.19999694824</ele>
        <time>2023-12-19T09:29:24Z</time>
      </trkpt>
      <trkpt lat="43.4531" lon="1.80326">
        <ele>130.60000610352</ele>
        <time>2023-12-19T09:29:43Z</time>
      </trkpt>
      <trkpt lat="43.4531" lon="1.80326">
        <ele>130.60000610352</ele>
        <time>2023-12-19T09:30:15Z</time>
      </trkpt>
      <trkpt lat="43.45303" lon="1.8032">
        <ele>131</ele>
        <time>2023-12-19T09:30:53Z</time>
      </trkpt>
      <trkpt lat="43.45302" lon="1.80319">
        <ele>131</ele>
        <time>2023-12-19T09:31:08Z</time>
      </trkpt>
      <trkpt lat="43.45301" lon="1.80319">
        <ele>129.39999389648</ele>
        <time>2023-12-19T09:31:26Z</time>
      </trkpt>
      <trkpt lat="43.45301" lon="1.80319">
        <ele>132.60000610352</ele>
        <time>2023-12-19T09:31:35Z</time>
      </trkpt>
      <trkpt lat="43.45301" lon="1.8032">
        <ele>133.60000610352</ele>
        <time>2023-12-19T09:31:56Z</time>
      </trkpt>
      <trkpt lat="43.45301" lon="1.8032">
        <ele>130.19999694824</ele>
        <time>2023-12-19T09:32:16Z</time>
      </trkpt>
      <trkpt lat="43.45301" lon="1.8032">
        <ele>132.60000610352</ele>
        <time>2023-12-19T09:32:21Z</time>
      </trkpt>
      <trkpt lat="43.453" lon="1.8032">
        <ele>130</ele>
        <time>2023-12-19T09:32:40Z</time>
      </trkpt>
      <trkpt lat="43.453" lon="1.8032">
        <ele>132.80000305176</ele>
        <time>2023-12-19T09:32:45Z</time>
      </trkpt>
      <trkpt lat="43.453" lon="1.80319">
        <ele>132</ele>
        <time>2023-12-19T09:33:12Z</time>
      </trkpt>
      <trkpt lat="43.453" lon="1.80319">
        <ele>132.39999389648</ele>
        <time>2023-12-19T09:33:35Z</time>
      </trkpt>
      <trkpt lat="43.453" lon="1.80319">
        <ele>132</ele>
        <time>2023-12-19T09:33:56Z</time>
      </trkpt>
      <trkpt lat="43.453" lon="1.80319">
        <ele>132.19999694824</ele>
        <time>2023-12-19T09:34:16Z</time>
      </trkpt>
      <trkpt lat="43.453" lon="1.80319">
        <ele>130.19999694824</ele>
        <time>2023-12-19T09:34:48Z</time>
      </trkpt>
      <trkpt lat="43.45301" lon="1.80319">
        <ele>132.80000305176</ele>
        <time>2023-12-19T09:36:59Z</time>
      </trkpt>
      <trkpt lat="43.453" lon="1.80317">
        <ele>133.60000610352</ele>
        <time>2023-12-19T09:37:29Z</time>
      </trkpt>
      <trkpt lat="43.45301" lon="1.80318">
        <ele>133</ele>
        <time>2023-12-19T09:37:49Z</time>
      </trkpt>
      <trkpt lat="43.45303" lon="1.80317">
        <ele>133.39999389648</ele>
        <time>2023-12-19T09:37:59Z</time>
      </trkpt>
      <trkpt lat="43.45304" lon="1.80318">
        <ele>133.39999389648</ele>
        <time>2023-12-19T09:38:00Z</time>
      </trkpt>
      <trkpt lat="43.45305" lon="1.80318">
        <ele>133.39999389648</ele>
        <time>2023-12-19T09:38:01Z</time>
      </trkpt>
      <trkpt lat="43.45306" lon="1.80319">
        <ele>133.39999389648</ele>
        <time>2023-12-19T09:38:02Z</time>
      </trkpt>
      <trkpt lat="43.45307" lon="1.80319">
        <ele>133.39999389648</ele>
        <time>2023-12-19T09:38:03Z</time>
      </trkpt>
      <trkpt lat="43.45308" lon="1.80319">
        <ele>133.39999389648</ele>
        <time>2023-12-19T09:38:04Z</time>
      </trkpt>
      <trkpt lat="43.45309" lon="1.8032">
        <ele>133.19999694824</ele>
        <time>2023-12-19T09:38:05Z</time>
      </trkpt>
      <trkpt lat="43.45337" lon="1.80315">
        <ele>133.60000610352</ele>
        <time>2023-12-19T09:38:28Z</time>
      </trkpt>
      <trkpt lat="43.45367" lon="1.803">
        <ele>134.80000305176</ele>
        <time>2023-12-19T09:38:54Z</time>
      </trkpt>
      <trkpt lat="43.45399" lon="1.80283">
        <ele>135.60000610352</ele>
        <time>2023-12-19T09:39:19Z</time>
      </trkpt>
      <trkpt lat="43.45432" lon="1.80268">
        <ele>135.80000305176</ele>
        <time>2023-12-19T09:39:45Z</time>
      </trkpt>
      <trkpt lat="43.45466" lon="1.80253">
        <ele>136</ele>
        <time>2023-12-19T09:40:12Z</time>
      </trkpt>
      <trkpt lat="43.45475" lon="1.80247">
        <ele>136.39999389648</ele>
        <time>2023-12-19T09:40:22Z</time>
      </trkpt>
      <trkpt lat="43.45476" lon="1.80247">
        <ele>136.39999389648</ele>
        <time>2023-12-19T09:40:23Z</time>
      </trkpt>
      <trkpt lat="43.45477" lon="1.80245">
        <ele>136.39999389648</ele>
        <time>2023-12-19T09:40:24Z</time>
      </trkpt>
      <trkpt lat="43.45477" lon="1.80244">
        <ele>136.39999389648</ele>
        <time>2023-12-19T09:40:25Z</time>
      </trkpt>
      <trkpt lat="43.45478" lon="1.80243">
        <ele>136.39999389648</ele>
        <time>2023-12-19T09:40:26Z</time>
      </trkpt>
      <trkpt lat="43.45479" lon="1.80242">
        <ele>136.39999389648</ele>
        <time>2023-12-19T09:40:27Z</time>
      </trkpt>
      <trkpt lat="43.4548" lon="1.80241">
        <ele>136.39999389648</ele>
        <time>2023-12-19T09:40:28Z</time>
      </trkpt>
      <trkpt lat="43.45481" lon="1.8024">
        <ele>136.19999694824</ele>
        <time>2023-12-19T09:40:29Z</time>
      </trkpt>
      <trkpt lat="43.45482" lon="1.80239">
        <ele>136.19999694824</ele>
        <time>2023-12-19T09:40:30Z</time>
      </trkpt>
      <trkpt lat="43.45483" lon="1.80237">
        <ele>136.19999694824</ele>
        <time>2023-12-19T09:40:31Z</time>
      </trkpt>
      <trkpt lat="43.45485" lon="1.80233">
        <ele>136</ele>
        <time>2023-12-19T09:40:36Z</time>
      </trkpt>
      <trkpt lat="43.45486" lon="1.80232">
        <ele>135.80000305176</ele>
        <time>2023-12-19T09:40:37Z</time>
      </trkpt>
      <trkpt lat="43.45487" lon="1.80231">
        <ele>135.80000305176</ele>
        <time>2023-12-19T09:40:38Z</time>
      </trkpt>
      <trkpt lat="43.45488" lon="1.8023">
        <ele>135.60000610352</ele>
        <time>2023-12-19T09:40:39Z</time>
      </trkpt>
      <trkpt lat="43.45488" lon="1.80229">
        <ele>135.60000610352</ele>
        <time>2023-12-19T09:40:40Z</time>
      </trkpt>
      <trkpt lat="43.45489" lon="1.80228">
        <ele>135.60000610352</ele>
        <time>2023-12-19T09:40:41Z</time>
      </trkpt>
      <trkpt lat="43.4549" lon="1.80226">
        <ele>135.39999389648</ele>
        <time>2023-12-19T09:40:42Z</time>
      </trkpt>
      <trkpt lat="43.45512" lon="1.80199">
        <ele>134.80000305176</ele>
        <time>2023-12-19T09:41:05Z</time>
      </trkpt>
      <trkpt lat="43.45532" lon="1.80168">
        <ele>133</ele>
        <time>2023-12-19T09:41:28Z</time>
      </trkpt>
      <trkpt lat="43.45554" lon="1.80136">
        <ele>131.39999389648</ele>
        <time>2023-12-19T09:41:53Z</time>
      </trkpt>
      <trkpt lat="43.45574" lon="1.80106">
        <ele>130.39999389648</ele>
        <time>2023-12-19T09:42:16Z</time>
      </trkpt>
      <trkpt lat="43.45596" lon="1.80073">
        <ele>129.19999694824</ele>
        <time>2023-12-19T09:42:41Z</time>
      </trkpt>
      <trkpt lat="43.45617" lon="1.80041">
        <ele>127.59999847412</ele>
        <time>2023-12-19T09:43:05Z</time>
      </trkpt>
      <trkpt lat="43.4564" lon="1.80006">
        <ele>126</ele>
        <time>2023-12-19T09:43:32Z</time>
      </trkpt>
      <trkpt lat="43.45642" lon="1.80002">
        <ele>125.59999847412</ele>
        <time>2023-12-19T09:43:35Z</time>
      </trkpt>
      <trkpt lat="43.45642" lon="1.80001">
        <ele>125.59999847412</ele>
        <time>2023-12-19T09:43:36Z</time>
      </trkpt>
      <trkpt lat="43.45643" lon="1.8">
        <ele>125.59999847412</ele>
        <time>2023-12-19T09:43:37Z</time>
      </trkpt>
      <trkpt lat="43.45644" lon="1.79999">
        <ele>125.59999847412</ele>
        <time>2023-12-19T09:43:38Z</time>
      </trkpt>
      <trkpt lat="43.45645" lon="1.79997">
        <ele>125.59999847412</ele>
        <time>2023-12-19T09:43:39Z</time>
      </trkpt>
      <trkpt lat="43.4566" lon="1.79983">
        <ele>123.59999847412</ele>
        <time>2023-12-19T09:43:55Z</time>
      </trkpt>
      <trkpt lat="43.45679" lon="1.79972">
        <ele>122</ele>
        <time>2023-12-19T09:44:12Z</time>
      </trkpt>
      <trkpt lat="43.457" lon="1.79961">
        <ele>120.19999694824</ele>
        <time>2023-12-19T09:44:30Z</time>
      </trkpt>
      <trkpt lat="43.45725" lon="1.79949">
        <ele>118.59999847412</ele>
        <time>2023-12-19T09:44:51Z</time>
      </trkpt>
      <trkpt lat="43.45749" lon="1.79938">
        <ele>117.59999847412</ele>
        <time>2023-12-19T09:45:09Z</time>
      </trkpt>
      <trkpt lat="43.4575" lon="1.79937">
        <ele>117.59999847412</ele>
        <time>2023-12-19T09:45:10Z</time>
      </trkpt>
      <trkpt lat="43.45752" lon="1.79935">
        <ele>117.40000152588</ele>
        <time>2023-12-19T09:45:11Z</time>
      </trkpt>
      <trkpt lat="43.45753" lon="1.79934">
        <ele>117.40000152588</ele>
        <time>2023-12-19T09:45:12Z</time>
      </trkpt>
      <trkpt lat="43.45754" lon="1.79933">
        <ele>117.40000152588</ele>
        <time>2023-12-19T09:45:13Z</time>
      </trkpt>
      <trkpt lat="43.45755" lon="1.79931">
        <ele>117.40000152588</ele>
        <time>2023-12-19T09:45:14Z</time>
      </trkpt>
      <trkpt lat="43.45755" lon="1.7993">
        <ele>117.40000152588</ele>
        <time>2023-12-19T09:45:15Z</time>
      </trkpt>
      <trkpt lat="43.45756" lon="1.79928">
        <ele>117.40000152588</ele>
        <time>2023-12-19T09:45:16Z</time>
      </trkpt>
      <trkpt lat="43.45766" lon="1.799">
        <ele>116.80000305176</ele>
        <time>2023-12-19T09:45:35Z</time>
      </trkpt>
      <trkpt lat="43.45774" lon="1.79871">
        <ele>116</ele>
        <time>2023-12-19T09:45:52Z</time>
      </trkpt>
      <trkpt lat="43.45787" lon="1.79836">
        <ele>115.40000152588</ele>
        <time>2023-12-19T09:46:13Z</time>
      </trkpt>
      <trkpt lat="43.45798" lon="1.79801">
        <ele>115.19999694824</ele>
        <time>2023-12-19T09:46:34Z</time>
      </trkpt>
      <trkpt lat="43.45812" lon="1.79765">
        <ele>114.80000305176</ele>
        <time>2023-12-19T09:46:56Z</time>
      </trkpt>
      <trkpt lat="43.45828" lon="1.79723">
        <ele>114</ele>
        <time>2023-12-19T09:47:22Z</time>
      </trkpt>
      <trkpt lat="43.45847" lon="1.79679">
        <ele>113.40000152588</ele>
        <time>2023-12-19T09:47:51Z</time>
      </trkpt>
      <trkpt lat="43.45862" lon="1.79655">
        <ele>113.40000152588</ele>
        <time>2023-12-19T09:48:13Z</time>
      </trkpt>
      <trkpt lat="43.45862" lon="1.79656">
        <ele>113.40000152588</ele>
        <time>2023-12-19T09:48:30Z</time>
      </trkpt>
      <trkpt lat="43.45862" lon="1.79655">
        <ele>113.40000152588</ele>
        <time>2023-12-19T09:48:50Z</time>
      </trkpt>
      <trkpt lat="43.45863" lon="1.79653">
        <ele>113.59999847412</ele>
        <time>2023-12-19T09:49:09Z</time>
      </trkpt>
      <trkpt lat="43.45863" lon="1.79653">
        <ele>113.80000305176</ele>
        <time>2023-12-19T09:49:28Z</time>
      </trkpt>
      <trkpt lat="43.45864" lon="1.79651">
        <ele>114.19999694824</ele>
        <time>2023-12-19T09:49:59Z</time>
      </trkpt>
      <trkpt lat="43.45867" lon="1.79646">
        <ele>114</ele>
        <time>2023-12-19T09:50:05Z</time>
      </trkpt>
      <trkpt lat="43.45869" lon="1.79643">
        <ele>114</ele>
        <time>2023-12-19T09:50:08Z</time>
      </trkpt>
      <trkpt lat="43.45883" lon="1.79617">
        <ele>115</ele>
        <time>2023-12-19T09:50:29Z</time>
      </trkpt>
      <trkpt lat="43.45902" lon="1.79603">
        <ele>116.19999694824</ele>
        <time>2023-12-19T09:50:49Z</time>
      </trkpt>
      <trkpt lat="43.45924" lon="1.79594">
        <ele>117.40000152588</ele>
        <time>2023-12-19T09:51:10Z</time>
      </trkpt>
      <trkpt lat="43.45942" lon="1.79585">
        <ele>118.40000152588</ele>
        <time>2023-12-19T09:51:27Z</time>
      </trkpt>
      <trkpt lat="43.45961" lon="1.7957">
        <ele>119.40000152588</ele>
        <time>2023-12-19T09:51:47Z</time>
      </trkpt>
      <trkpt lat="43.45977" lon="1.79555">
        <ele>120.80000305176</ele>
        <time>2023-12-19T09:52:06Z</time>
      </trkpt>
      <trkpt lat="43.45993" lon="1.79544">
        <ele>122.80000305176</ele>
        <time>2023-12-19T09:52:24Z</time>
      </trkpt>
      <trkpt lat="43.4601" lon="1.79531">
        <ele>124.80000305176</ele>
        <time>2023-12-19T09:52:44Z</time>
      </trkpt>
      <trkpt lat="43.46032" lon="1.79521">
        <ele>126.40000152588</ele>
        <time>2023-12-19T09:53:06Z</time>
      </trkpt>
      <trkpt lat="43.46054" lon="1.7951">
        <ele>127</ele>
        <time>2023-12-19T09:53:27Z</time>
      </trkpt>
      <trkpt lat="43.46069" lon="1.79501">
        <ele>126.59999847412</ele>
        <time>2023-12-19T09:53:43Z</time>
      </trkpt>
      <trkpt lat="43.46089" lon="1.79493">
        <ele>126.80000305176</ele>
        <time>2023-12-19T09:54:02Z</time>
      </trkpt>
      <trkpt lat="43.46112" lon="1.79485">
        <ele>127.40000152588</ele>
        <time>2023-12-19T09:54:25Z</time>
      </trkpt>
      <trkpt lat="43.46134" lon="1.79474">
        <ele>127.80000305176</ele>
        <time>2023-12-19T09:54:47Z</time>
      </trkpt>
      <trkpt lat="43.46154" lon="1.79464">
        <ele>128.60000610352</ele>
        <time>2023-12-19T09:55:08Z</time>
      </trkpt>
      <trkpt lat="43.46176" lon="1.79458">
        <ele>129.80000305176</ele>
        <time>2023-12-19T09:55:30Z</time>
      </trkpt>
      <trkpt lat="43.46198" lon="1.79457">
        <ele>130.39999389648</ele>
        <time>2023-12-19T09:55:51Z</time>
      </trkpt>
      <trkpt lat="43.46221" lon="1.7946">
        <ele>130.60000610352</ele>
        <time>2023-12-19T09:56:13Z</time>
      </trkpt>
      <trkpt lat="43.4624" lon="1.79469">
        <ele>130.80000305176</ele>
        <time>2023-12-19T09:56:33Z</time>
      </trkpt>
      <trkpt lat="43.46261" lon="1.79485">
        <ele>131.39999389648</ele>
        <time>2023-12-19T09:56:56Z</time>
      </trkpt>
      <trkpt lat="43.46284" lon="1.79497">
        <ele>132.19999694824</ele>
        <time>2023-12-19T09:57:19Z</time>
      </trkpt>
      <trkpt lat="43.46306" lon="1.795">
        <ele>133.19999694824</ele>
        <time>2023-12-19T09:57:40Z</time>
      </trkpt>
      <trkpt lat="43.46325" lon="1.79495">
        <ele>134.39999389648</ele>
        <time>2023-12-19T09:58:00Z</time>
      </trkpt>
      <trkpt lat="43.46342" lon="1.79485">
        <ele>135.19999694824</ele>
        <time>2023-12-19T09:58:19Z</time>
      </trkpt>
      <trkpt lat="43.46349" lon="1.79476">
        <ele>135.60000610352</ele>
        <time>2023-12-19T09:58:30Z</time>
      </trkpt>
      <trkpt lat="43.4635" lon="1.79475">
        <ele>135.80000305176</ele>
        <time>2023-12-19T09:58:31Z</time>
      </trkpt>
      <trkpt lat="43.46363" lon="1.79452">
        <ele>136.39999389648</ele>
        <time>2023-12-19T09:58:52Z</time>
      </trkpt>
      <trkpt lat="43.46373" lon="1.79432">
        <ele>137.19999694824</ele>
        <time>2023-12-19T09:59:12Z</time>
      </trkpt>
      <trkpt lat="43.46384" lon="1.79408">
        <ele>137.19999694824</ele>
        <time>2023-12-19T09:59:33Z</time>
      </trkpt>
      <trkpt lat="43.46389" lon="1.79392">
        <ele>136</ele>
        <time>2023-12-19T09:59:53Z</time>
      </trkpt>
      <trkpt lat="43.46387" lon="1.79397">
        <ele>138.39999389648</ele>
        <time>2023-12-19T10:00:16Z</time>
      </trkpt>
      <trkpt lat="43.46384" lon="1.79404">
        <ele>136.39999389648</ele>
        <time>2023-12-19T10:00:33Z</time>
      </trkpt>
      <trkpt lat="43.46384" lon="1.79405">
        <ele>137</ele>
        <time>2023-12-19T10:00:58Z</time>
      </trkpt>
      <trkpt lat="43.46383" lon="1.79406">
        <ele>137.19999694824</ele>
        <time>2023-12-19T10:01:23Z</time>
      </trkpt>
      <trkpt lat="43.46382" lon="1.79408">
        <ele>137.60000610352</ele>
        <time>2023-12-19T10:01:42Z</time>
      </trkpt>
      <trkpt lat="43.46379" lon="1.79413">
        <ele>137.39999389648</ele>
        <time>2023-12-19T10:02:03Z</time>
      </trkpt>
      <trkpt lat="43.46381" lon="1.79413">
        <ele>137.19999694824</ele>
        <time>2023-12-19T10:02:25Z</time>
      </trkpt>
      <trkpt lat="43.46381" lon="1.79413">
        <ele>137.60000610352</ele>
        <time>2023-12-19T10:02:47Z</time>
      </trkpt>
      <trkpt lat="43.46381" lon="1.79413">
        <ele>137.60000610352</ele>
        <time>2023-12-19T10:03:09Z</time>
      </trkpt>
      <trkpt lat="43.46382" lon="1.79409">
        <ele>137.60000610352</ele>
        <time>2023-12-19T10:03:28Z</time>
      </trkpt>
      <trkpt lat="43.4639" lon="1.79392">
        <ele>137</ele>
        <time>2023-12-19T10:03:48Z</time>
      </trkpt>
      <trkpt lat="43.46398" lon="1.79382">
        <ele>136.60000610352</ele>
        <time>2023-12-19T10:03:59Z</time>
      </trkpt>
      <trkpt lat="43.46416" lon="1.79382">
        <ele>137.19999694824</ele>
        <time>2023-12-19T10:04:17Z</time>
      </trkpt>
      <trkpt lat="43.4644" lon="1.79384">
        <ele>138.39999389648</ele>
        <time>2023-12-19T10:04:41Z</time>
      </trkpt>
      <trkpt lat="43.46462" lon="1.79385">
        <ele>140</ele>
        <time>2023-12-19T10:05:03Z</time>
      </trkpt>
      <trkpt lat="43.46479" lon="1.79388">
        <ele>141.80000305176</ele>
        <time>2023-12-19T10:05:22Z</time>
      </trkpt>
      <trkpt lat="43.46494" lon="1.79391">
        <ele>143.39999389648</ele>
        <time>2023-12-19T10:05:38Z</time>
      </trkpt>
      <trkpt lat="43.46513" lon="1.79397">
        <ele>145.39999389648</ele>
        <time>2023-12-19T10:05:58Z</time>
      </trkpt>
      <trkpt lat="43.4653" lon="1.79407">
        <ele>147.60000610352</ele>
        <time>2023-12-19T10:06:20Z</time>
      </trkpt>
      <trkpt lat="43.46541" lon="1.79423">
        <ele>149.80000305176</ele>
        <time>2023-12-19T10:06:38Z</time>
      </trkpt>
      <trkpt lat="43.46543" lon="1.79441">
        <ele>151.19999694824</ele>
        <time>2023-12-19T10:06:53Z</time>
      </trkpt>
      <trkpt lat="43.46543" lon="1.79463">
        <ele>151.60000610352</ele>
        <time>2023-12-19T10:07:11Z</time>
      </trkpt>
      <trkpt lat="43.46543" lon="1.79471">
        <ele>152</ele>
        <time>2023-12-19T10:07:17Z</time>
      </trkpt>
      <trkpt lat="43.46542" lon="1.79472">
        <ele>152.19999694824</ele>
        <time>2023-12-19T10:07:18Z</time>
      </trkpt>
      <trkpt lat="43.46542" lon="1.79475">
        <ele>152.39999389648</ele>
        <time>2023-12-19T10:07:20Z</time>
      </trkpt>
      <trkpt lat="43.46539" lon="1.79503">
        <ele>153.60000610352</ele>
        <time>2023-12-19T10:07:39Z</time>
      </trkpt>
      <trkpt lat="43.46541" lon="1.79533">
        <ele>153.80000305176</ele>
        <time>2023-12-19T10:08:00Z</time>
      </trkpt>
      <trkpt lat="43.4655" lon="1.79543">
        <ele>153.39999389648</ele>
        <time>2023-12-19T10:08:15Z</time>
      </trkpt>
      <trkpt lat="43.4656" lon="1.79557">
        <ele>152.19999694824</ele>
        <time>2023-12-19T10:08:32Z</time>
      </trkpt>
      <trkpt lat="43.46566" lon="1.79565">
        <ele>150</ele>
        <time>2023-12-19T10:08:49Z</time>
      </trkpt>
      <trkpt lat="43.46565" lon="1.79565">
        <ele>149.80000305176</ele>
        <time>2023-12-19T10:09:18Z</time>
      </trkpt>
      <trkpt lat="43.46565" lon="1.79565">
        <ele>149.80000305176</ele>
        <time>2023-12-19T10:09:34Z</time>
      </trkpt>
      <trkpt lat="43.46565" lon="1.79565">
        <ele>150</ele>
        <time>2023-12-19T10:09:55Z</time>
      </trkpt>
      <trkpt lat="43.46565" lon="1.79566">
        <ele>150.19999694824</ele>
        <time>2023-12-19T10:10:18Z</time>
      </trkpt>
      <trkpt lat="43.46566" lon="1.79566">
        <ele>150.60000610352</ele>
        <time>2023-12-19T10:10:41Z</time>
      </trkpt>
      <trkpt lat="43.46577" lon="1.7958">
        <ele>149.19999694824</ele>
        <time>2023-12-19T10:11:00Z</time>
      </trkpt>
      <trkpt lat="43.46587" lon="1.79599">
        <ele>147.19999694824</ele>
        <time>2023-12-19T10:11:20Z</time>
      </trkpt>
      <trkpt lat="43.46604" lon="1.79627">
        <ele>145.39999389648</ele>
        <time>2023-12-19T10:11:45Z</time>
      </trkpt>
      <trkpt lat="43.46623" lon="1.79666">
        <ele>143.60000610352</ele>
        <time>2023-12-19T10:12:15Z</time>
      </trkpt>
      <trkpt lat="43.46639" lon="1.797">
        <ele>142.60000610352</ele>
        <time>2023-12-19T10:12:40Z</time>
      </trkpt>
      <trkpt lat="43.46652" lon="1.79726">
        <ele>142</ele>
        <time>2023-12-19T10:12:59Z</time>
      </trkpt>
      <trkpt lat="43.46662" lon="1.79756">
        <ele>141.80000305176</ele>
        <time>2023-12-19T10:13:19Z</time>
      </trkpt>
      <trkpt lat="43.46676" lon="1.79796">
        <ele>141.19999694824</ele>
        <time>2023-12-19T10:13:45Z</time>
      </trkpt>
      <trkpt lat="43.46691" lon="1.79828">
        <ele>140.60000610352</ele>
        <time>2023-12-19T10:14:08Z</time>
      </trkpt>
      <trkpt lat="43.46707" lon="1.79862">
        <ele>138.19999694824</ele>
        <time>2023-12-19T10:14:33Z</time>
      </trkpt>
      <trkpt lat="43.46727" lon="1.79893">
        <ele>136.80000305176</ele>
        <time>2023-12-19T10:14:59Z</time>
      </trkpt>
      <trkpt lat="43.46751" lon="1.79911">
        <ele>135.60000610352</ele>
        <time>2023-12-19T10:15:22Z</time>
      </trkpt>
      <trkpt lat="43.46779" lon="1.79926">
        <ele>135</ele>
        <time>2023-12-19T10:15:47Z</time>
      </trkpt>
      <trkpt lat="43.46798" lon="1.79942">
        <ele>134.60000610352</ele>
        <time>2023-12-19T10:16:08Z</time>
      </trkpt>
      <trkpt lat="43.46814" lon="1.79965">
        <ele>133.60000610352</ele>
        <time>2023-12-19T10:16:30Z</time>
      </trkpt>
      <trkpt lat="43.46833" lon="1.79989">
        <ele>132.80000305176</ele>
        <time>2023-12-19T10:16:52Z</time>
      </trkpt>
      <trkpt lat="43.46854" lon="1.80019">
        <ele>132</ele>
        <time>2023-12-19T10:17:18Z</time>
      </trkpt>
      <trkpt lat="43.46878" lon="1.80051">
        <ele>131.60000610352</ele>
        <time>2023-12-19T10:17:45Z</time>
      </trkpt>
      <trkpt lat="43.46896" lon="1.80075">
        <ele>131.19999694824</ele>
        <time>2023-12-19T10:18:06Z</time>
      </trkpt>
      <trkpt lat="43.46918" lon="1.80105">
        <ele>130.60000610352</ele>
        <time>2023-12-19T10:18:32Z</time>
      </trkpt>
      <trkpt lat="43.46938" lon="1.80132">
        <ele>129.80000305176</ele>
        <time>2023-12-19T10:18:55Z</time>
      </trkpt>
      <trkpt lat="43.46962" lon="1.8016">
        <ele>129.60000610352</ele>
        <time>2023-12-19T10:19:21Z</time>
      </trkpt>
      <trkpt lat="43.46985" lon="1.8018">
        <ele>129.60000610352</ele>
        <time>2023-12-19T10:19:44Z</time>
      </trkpt>
      <trkpt lat="43.47006" lon="1.80198">
        <ele>130</ele>
        <time>2023-12-19T10:20:06Z</time>
      </trkpt>
      <trkpt lat="43.47028" lon="1.80217">
        <ele>129</ele>
        <time>2023-12-19T10:20:29Z</time>
      </trkpt>
      <trkpt lat="43.47049" lon="1.80241">
        <ele>128</ele>
        <time>2023-12-19T10:20:53Z</time>
      </trkpt>
      <trkpt lat="43.47066" lon="1.80263">
        <ele>126.80000305176</ele>
        <time>2023-12-19T10:21:14Z</time>
      </trkpt>
      <trkpt lat="43.47085" lon="1.80288">
        <ele>125.40000152588</ele>
        <time>2023-12-19T10:21:36Z</time>
      </trkpt>
      <trkpt lat="43.47109" lon="1.80319">
        <ele>125</ele>
        <time>2023-12-19T10:22:03Z</time>
      </trkpt>
      <trkpt lat="43.47127" lon="1.80344">
        <ele>125.40000152588</ele>
        <time>2023-12-19T10:22:25Z</time>
      </trkpt>
      <trkpt lat="43.47144" lon="1.80374">
        <ele>126</ele>
        <time>2023-12-19T10:22:48Z</time>
      </trkpt>
      <trkpt lat="43.4716" lon="1.80397">
        <ele>127.40000152588</ele>
        <time>2023-12-19T10:23:09Z</time>
      </trkpt>
      <trkpt lat="43.47178" lon="1.80413">
        <ele>129.39999389648</ele>
        <time>2023-12-19T10:23:30Z</time>
      </trkpt>
      <trkpt lat="43.47195" lon="1.80426">
        <ele>131.39999389648</ele>
        <time>2023-12-19T10:23:50Z</time>
      </trkpt>
      <trkpt lat="43.47211" lon="1.80436">
        <ele>133.80000305176</ele>
        <time>2023-12-19T10:24:08Z</time>
      </trkpt>
      <trkpt lat="43.47228" lon="1.80446">
        <ele>136</ele>
        <time>2023-12-19T10:24:26Z</time>
      </trkpt>
      <trkpt lat="43.47246" lon="1.80462">
        <ele>137.80000305176</ele>
        <time>2023-12-19T10:24:47Z</time>
      </trkpt>
      <trkpt lat="43.47262" lon="1.80489">
        <ele>139.80000305176</ele>
        <time>2023-12-19T10:25:09Z</time>
      </trkpt>
      <trkpt lat="43.47279" lon="1.80518">
        <ele>140.39999389648</ele>
        <time>2023-12-19T10:25:33Z</time>
      </trkpt>
      <trkpt lat="43.47298" lon="1.80542">
        <ele>140.39999389648</ele>
        <time>2023-12-19T10:25:56Z</time>
      </trkpt>
      <trkpt lat="43.47315" lon="1.80557">
        <ele>139.39999389648</ele>
        <time>2023-12-19T10:26:15Z</time>
      </trkpt>
      <trkpt lat="43.47334" lon="1.80571">
        <ele>137.60000610352</ele>
        <time>2023-12-19T10:26:34Z</time>
      </trkpt>
      <trkpt lat="43.47358" lon="1.80593">
        <ele>135.19999694824</ele>
        <time>2023-12-19T10:27:00Z</time>
      </trkpt>
      <trkpt lat="43.47385" lon="1.80616">
        <ele>133.60000610352</ele>
        <time>2023-12-19T10:27:27Z</time>
      </trkpt>
      <trkpt lat="43.4741" lon="1.80637">
        <ele>133.19999694824</ele>
        <time>2023-12-19T10:27:51Z</time>
      </trkpt>
      <trkpt lat="43.47435" lon="1.80655">
        <ele>134.19999694824</ele>
        <time>2023-12-19T10:28:15Z</time>
      </trkpt>
      <trkpt lat="43.47461" lon="1.80663">
        <ele>133.60000610352</ele>
        <time>2023-12-19T10:28:38Z</time>
      </trkpt>
      <trkpt lat="43.47488" lon="1.80668">
        <ele>131.19999694824</ele>
        <time>2023-12-19T10:29:04Z</time>
      </trkpt>
      <trkpt lat="43.47514" lon="1.80674">
        <ele>128.80000305176</ele>
        <time>2023-12-19T10:29:29Z</time>
      </trkpt>
      <trkpt lat="43.47542" lon="1.80681">
        <ele>126</ele>
        <time>2023-12-19T10:29:55Z</time>
      </trkpt>
      <trkpt lat="43.47568" lon="1.80687">
        <ele>123.40000152588</ele>
        <time>2023-12-19T10:30:21Z</time>
      </trkpt>
      <trkpt lat="43.47595" lon="1.80693">
        <ele>121</ele>
        <time>2023-12-19T10:30:46Z</time>
      </trkpt>
      <trkpt lat="43.47614" lon="1.80697">
        <ele>118</ele>
        <time>2023-12-19T10:31:07Z</time>
      </trkpt>
      <trkpt lat="43.47616" lon="1.80698">
        <ele>117.80000305176</ele>
        <time>2023-12-19T10:31:09Z</time>
      </trkpt>
      <trkpt lat="43.47617" lon="1.80699">
        <ele>117.80000305176</ele>
        <time>2023-12-19T10:31:10Z</time>
      </trkpt>
      <trkpt lat="43.47642" lon="1.80714">
        <ele>115.19999694824</ele>
        <time>2023-12-19T10:31:34Z</time>
      </trkpt>
      <trkpt lat="43.47664" lon="1.80732">
        <ele>113</ele>
        <time>2023-12-19T10:31:57Z</time>
      </trkpt>
      <trkpt lat="43.47692" lon="1.80752">
        <ele>111.19999694824</ele>
        <time>2023-12-19T10:32:24Z</time>
      </trkpt>
      <trkpt lat="43.47704" lon="1.80763">
        <ele>110.40000152588</ele>
        <time>2023-12-19T10:32:41Z</time>
      </trkpt>
      <trkpt lat="43.47704" lon="1.80764">
        <ele>110.40000152588</ele>
        <time>2023-12-19T10:33:02Z</time>
      </trkpt>
      <trkpt lat="43.47706" lon="1.80767">
        <ele>110.59999847412</ele>
        <time>2023-12-19T10:33:21Z</time>
      </trkpt>
      <trkpt lat="43.47708" lon="1.80769">
        <ele>110.59999847412</ele>
        <time>2023-12-19T10:33:23Z</time>
      </trkpt>
      <trkpt lat="43.47708" lon="1.8077">
        <ele>110.40000152588</ele>
        <time>2023-12-19T10:33:24Z</time>
      </trkpt>
      <trkpt lat="43.47731" lon="1.80778">
        <ele>110.19999694824</ele>
        <time>2023-12-19T10:33:46Z</time>
      </trkpt>
      <trkpt lat="43.4776" lon="1.80784">
        <ele>110</ele>
        <time>2023-12-19T10:34:11Z</time>
      </trkpt>
      <trkpt lat="43.4778" lon="1.80799">
        <ele>110.80000305176</ele>
        <time>2023-12-19T10:34:33Z</time>
      </trkpt>
      <trkpt lat="43.47778" lon="1.80807">
        <ele>111.19999694824</ele>
        <time>2023-12-19T10:34:40Z</time>
      </trkpt>
      <trkpt lat="43.47772" lon="1.80835">
        <ele>110.40000152588</ele>
        <time>2023-12-19T10:35:00Z</time>
      </trkpt>
      <trkpt lat="43.47767" lon="1.80867">
        <ele>110.40000152588</ele>
        <time>2023-12-19T10:35:21Z</time>
      </trkpt>
      <trkpt lat="43.47763" lon="1.80894">
        <ele>111</ele>
        <time>2023-12-19T10:35:39Z</time>
      </trkpt>
      <trkpt lat="43.47758" lon="1.80922">
        <ele>111.59999847412</ele>
        <time>2023-12-19T10:35:58Z</time>
      </trkpt>
      <trkpt lat="43.4775" lon="1.80948">
        <ele>112</ele>
        <time>2023-12-19T10:36:17Z</time>
      </trkpt>
      <trkpt lat="43.47741" lon="1.80978">
        <ele>112.40000152588</ele>
        <time>2023-12-19T10:36:38Z</time>
      </trkpt>
      <trkpt lat="43.47732" lon="1.81007">
        <ele>112.40000152588</ele>
        <time>2023-12-19T10:36:58Z</time>
      </trkpt>
      <trkpt lat="43.47722" lon="1.81035">
        <ele>113</ele>
        <time>2023-12-19T10:37:18Z</time>
      </trkpt>
      <trkpt lat="43.47715" lon="1.8106">
        <ele>113.40000152588</ele>
        <time>2023-12-19T10:37:36Z</time>
      </trkpt>
      <trkpt lat="43.47706" lon="1.81092">
        <ele>113.80000305176</ele>
        <time>2023-12-19T10:37:58Z</time>
      </trkpt>
      <trkpt lat="43.47699" lon="1.81122">
        <ele>114</ele>
        <time>2023-12-19T10:38:18Z</time>
      </trkpt>
      <trkpt lat="43.47696" lon="1.81156">
        <ele>114.19999694824</ele>
        <time>2023-12-19T10:38:41Z</time>
      </trkpt>
      <trkpt lat="43.47694" lon="1.8119">
        <ele>115</ele>
        <time>2023-12-19T10:39:04Z</time>
      </trkpt>
      <trkpt lat="43.47694" lon="1.81222">
        <ele>115.59999847412</ele>
        <time>2023-12-19T10:39:24Z</time>
      </trkpt>
      <trkpt lat="43.47693" lon="1.81249">
        <ele>116.40000152588</ele>
        <time>2023-12-19T10:39:44Z</time>
      </trkpt>
      <trkpt lat="43.47691" lon="1.81277">
        <ele>117.19999694824</ele>
        <time>2023-12-19T10:40:02Z</time>
      </trkpt>
      <trkpt lat="43.47681" lon="1.81312">
        <ele>116.19999694824</ele>
        <time>2023-12-19T10:40:27Z</time>
      </trkpt>
      <trkpt lat="43.47673" lon="1.8134">
        <ele>115.80000305176</ele>
        <time>2023-12-19T10:40:49Z</time>
      </trkpt>
      <trkpt lat="43.47664" lon="1.81369">
        <ele>115.59999847412</ele>
        <time>2023-12-19T10:41:07Z</time>
      </trkpt>
      <trkpt lat="43.47654" lon="1.81395">
        <ele>115.80000305176</ele>
        <time>2023-12-19T10:41:26Z</time>
      </trkpt>
      <trkpt lat="43.47644" lon="1.81415">
        <ele>116</ele>
        <time>2023-12-19T10:41:42Z</time>
      </trkpt>
      <trkpt lat="43.4763" lon="1.81439">
        <ele>116.19999694824</ele>
        <time>2023-12-19T10:42:02Z</time>
      </trkpt>
      <trkpt lat="43.47613" lon="1.81471">
        <ele>116</ele>
        <time>2023-12-19T10:42:27Z</time>
      </trkpt>
      <trkpt lat="43.476" lon="1.81498">
        <ele>116.19999694824</ele>
        <time>2023-12-19T10:42:48Z</time>
      </trkpt>
      <trkpt lat="43.47591" lon="1.8153">
        <ele>116.40000152588</ele>
        <time>2023-12-19T10:43:10Z</time>
      </trkpt>
      <trkpt lat="43.47588" lon="1.81558">
        <ele>117.40000152588</ele>
        <time>2023-12-19T10:43:30Z</time>
      </trkpt>
      <trkpt lat="43.47585" lon="1.81568">
        <ele>117.80000305176</ele>
        <time>2023-12-19T10:43:46Z</time>
      </trkpt>
      <trkpt lat="43.47585" lon="1.81569">
        <ele>118</ele>
        <time>2023-12-19T10:44:10Z</time>
      </trkpt>
      <trkpt lat="43.47586" lon="1.81569">
        <ele>118</ele>
        <time>2023-12-19T10:44:24Z</time>
      </trkpt>
      <trkpt lat="43.47584" lon="1.81574">
        <ele>118.19999694824</ele>
        <time>2023-12-19T10:44:42Z</time>
      </trkpt>
      <trkpt lat="43.47581" lon="1.81581">
        <ele>118.40000152588</ele>
        <time>2023-12-19T10:45:01Z</time>
      </trkpt>
      <trkpt lat="43.47576" lon="1.81595">
        <ele>118.19999694824</ele>
        <time>2023-12-19T10:45:19Z</time>
      </trkpt>
      <trkpt lat="43.47569" lon="1.81616">
        <ele>118.19999694824</ele>
        <time>2023-12-19T10:45:38Z</time>
      </trkpt>
      <trkpt lat="43.47568" lon="1.81617">
        <ele>118.19999694824</ele>
        <time>2023-12-19T10:45:39Z</time>
      </trkpt>
      <trkpt lat="43.47561" lon="1.81642">
        <ele>118.40000152588</ele>
        <time>2023-12-19T10:45:59Z</time>
      </trkpt>
      <trkpt lat="43.47554" lon="1.81665">
        <ele>118.80000305176</ele>
        <time>2023-12-19T10:46:17Z</time>
      </trkpt>
      <trkpt lat="43.47546" lon="1.81694">
        <ele>119</ele>
        <time>2023-12-19T10:46:39Z</time>
      </trkpt>
      <trkpt lat="43.47538" lon="1.81723">
        <ele>119.80000305176</ele>
        <time>2023-12-19T10:47:02Z</time>
      </trkpt>
      <trkpt lat="43.47532" lon="1.81751">
        <ele>120.19999694824</ele>
        <time>2023-12-19T10:47:23Z</time>
      </trkpt>
      <trkpt lat="43.47525" lon="1.81785">
        <ele>120.40000152588</ele>
        <time>2023-12-19T10:47:47Z</time>
      </trkpt>
      <trkpt lat="43.47521" lon="1.81816">
        <ele>120.80000305176</ele>
        <time>2023-12-19T10:48:09Z</time>
      </trkpt>
      <trkpt lat="43.4752" lon="1.81846">
        <ele>121.19999694824</ele>
        <time>2023-12-19T10:48:30Z</time>
      </trkpt>
      <trkpt lat="43.47514" lon="1.8188">
        <ele>121.59999847412</ele>
        <time>2023-12-19T10:48:53Z</time>
      </trkpt>
      <trkpt lat="43.47499" lon="1.81912">
        <ele>121.40000152588</ele>
        <time>2023-12-19T10:49:18Z</time>
      </trkpt>
      <trkpt lat="43.47485" lon="1.81943">
        <ele>120.80000305176</ele>
        <time>2023-12-19T10:49:42Z</time>
      </trkpt>
      <trkpt lat="43.47477" lon="1.81973">
        <ele>121</ele>
        <time>2023-12-19T10:50:05Z</time>
      </trkpt>
      <trkpt lat="43.47465" lon="1.81996">
        <ele>121.80000305176</ele>
        <time>2023-12-19T10:50:25Z</time>
      </trkpt>
      <trkpt lat="43.47451" lon="1.82018">
        <ele>122</ele>
        <time>2023-12-19T10:50:46Z</time>
      </trkpt>
      <trkpt lat="43.47435" lon="1.82038">
        <ele>122.40000152588</ele>
        <time>2023-12-19T10:51:07Z</time>
      </trkpt>
      <trkpt lat="43.47413" lon="1.82064">
        <ele>122.59999847412</ele>
        <time>2023-12-19T10:51:33Z</time>
      </trkpt>
      <trkpt lat="43.47395" lon="1.82088">
        <ele>122.80000305176</ele>
        <time>2023-12-19T10:51:58Z</time>
      </trkpt>
      <trkpt lat="43.47383" lon="1.8211">
        <ele>123.19999694824</ele>
        <time>2023-12-19T10:52:18Z</time>
      </trkpt>
      <trkpt lat="43.47373" lon="1.82132">
        <ele>123.40000152588</ele>
        <time>2023-12-19T10:52:37Z</time>
      </trkpt>
      <trkpt lat="43.47357" lon="1.82154">
        <ele>123.80000305176</ele>
        <time>2023-12-19T10:52:58Z</time>
      </trkpt>
      <trkpt lat="43.47339" lon="1.82174">
        <ele>124</ele>
        <time>2023-12-19T10:53:19Z</time>
      </trkpt>
      <trkpt lat="43.47323" lon="1.8219">
        <ele>124.19999694824</ele>
        <time>2023-12-19T10:53:38Z</time>
      </trkpt>
      <trkpt lat="43.47305" lon="1.82206">
        <ele>124.59999847412</ele>
        <time>2023-12-19T10:53:58Z</time>
      </trkpt>
      <trkpt lat="43.47283" lon="1.82224">
        <ele>124.80000305176</ele>
        <time>2023-12-19T10:54:22Z</time>
      </trkpt>
      <trkpt lat="43.47266" lon="1.82238">
        <ele>125.19999694824</ele>
        <time>2023-12-19T10:54:41Z</time>
      </trkpt>
      <trkpt lat="43.47249" lon="1.8225">
        <ele>125.40000152588</ele>
        <time>2023-12-19T10:54:59Z</time>
      </trkpt>
      <trkpt lat="43.47235" lon="1.82266">
        <ele>125.59999847412</ele>
        <time>2023-12-19T10:55:17Z</time>
      </trkpt>
      <trkpt lat="43.4723" lon="1.82284">
        <ele>125.80000305176</ele>
        <time>2023-12-19T10:55:31Z</time>
      </trkpt>
      <trkpt lat="43.4723" lon="1.82285">
        <ele>125.80000305176</ele>
        <time>2023-12-19T10:55:32Z</time>
      </trkpt>
      <trkpt lat="43.47226" lon="1.8231">
        <ele>126.19999694824</ele>
        <time>2023-12-19T10:55:50Z</time>
      </trkpt>
      <trkpt lat="43.47224" lon="1.82318">
        <ele>126.40000152588</ele>
        <time>2023-12-19T10:55:57Z</time>
      </trkpt>
      <trkpt lat="43.47223" lon="1.8232">
        <ele>126.40000152588</ele>
        <time>2023-12-19T10:55:58Z</time>
      </trkpt>
      <trkpt lat="43.47223" lon="1.82322">
        <ele>126.40000152588</ele>
        <time>2023-12-19T10:55:59Z</time>
      </trkpt>
      <trkpt lat="43.47223" lon="1.82323">
        <ele>126.40000152588</ele>
        <time>2023-12-19T10:56:00Z</time>
      </trkpt>
      <trkpt lat="43.47218" lon="1.82348">
        <ele>127.19999694824</ele>
        <time>2023-12-19T10:56:19Z</time>
      </trkpt>
      <trkpt lat="43.47214" lon="1.8237">
        <ele>127.80000305176</ele>
        <time>2023-12-19T10:56:37Z</time>
      </trkpt>
      <trkpt lat="43.47208" lon="1.82398">
        <ele>129</ele>
        <time>2023-12-19T10:56:59Z</time>
      </trkpt>
      <trkpt lat="43.47202" lon="1.82423">
        <ele>130.19999694824</ele>
        <time>2023-12-19T10:57:18Z</time>
      </trkpt>
      <trkpt lat="43.47196" lon="1.82451">
        <ele>131</ele>
        <time>2023-12-19T10:57:39Z</time>
      </trkpt>
      <trkpt lat="43.4719" lon="1.82475">
        <ele>131.60000610352</ele>
        <time>2023-12-19T10:57:57Z</time>
      </trkpt>
      <trkpt lat="43.47184" lon="1.82504">
        <ele>132.60000610352</ele>
        <time>2023-12-19T10:58:19Z</time>
      </trkpt>
      <trkpt lat="43.47181" lon="1.82526">
        <ele>133.60000610352</ele>
        <time>2023-12-19T10:58:36Z</time>
      </trkpt>
      <trkpt lat="43.47178" lon="1.82549">
        <ele>134.19999694824</ele>
        <time>2023-12-19T10:58:57Z</time>
      </trkpt>
      <trkpt lat="43.47178" lon="1.82556">
        <ele>135</ele>
        <time>2023-12-19T10:59:14Z</time>
      </trkpt>
      <trkpt lat="43.47178" lon="1.82558">
        <ele>135.60000610352</ele>
        <time>2023-12-19T10:59:38Z</time>
      </trkpt>
      <trkpt lat="43.47177" lon="1.82559">
        <ele>135.39999389648</ele>
        <time>2023-12-19T10:59:59Z</time>
      </trkpt>
      <trkpt lat="43.47177" lon="1.82559">
        <ele>135.39999389648</ele>
        <time>2023-12-19T11:00:19Z</time>
      </trkpt>
      <trkpt lat="43.47177" lon="1.82559">
        <ele>135.39999389648</ele>
        <time>2023-12-19T11:00:39Z</time>
      </trkpt>
      <trkpt lat="43.47177" lon="1.82559">
        <ele>135.80000305176</ele>
        <time>2023-12-19T11:01:04Z</time>
      </trkpt>
      <trkpt lat="43.47177" lon="1.82559">
        <ele>135.80000305176</ele>
        <time>2023-12-19T11:01:28Z</time>
      </trkpt>
      <trkpt lat="43.47177" lon="1.82559">
        <ele>136</ele>
        <time>2023-12-19T11:01:59Z</time>
      </trkpt>
      <trkpt lat="43.47177" lon="1.82559">
        <ele>135.80000305176</ele>
        <time>2023-12-19T11:02:31Z</time>
      </trkpt>
      <trkpt lat="43.47177" lon="1.82559">
        <ele>135.80000305176</ele>
        <time>2023-12-19T11:03:05Z</time>
      </trkpt>
      <trkpt lat="43.47177" lon="1.82559">
        <ele>136.60000610352</ele>
        <time>2023-12-19T11:03:37Z</time>
      </trkpt>
      <trkpt lat="43.47177" lon="1.8256">
        <ele>136.60000610352</ele>
        <time>2023-12-19T11:04:00Z</time>
      </trkpt>
      <trkpt lat="43.47176" lon="1.8256">
        <ele>136.39999389648</ele>
        <time>2023-12-19T11:04:32Z</time>
      </trkpt>
      <trkpt lat="43.47176" lon="1.82559">
        <ele>136.39999389648</ele>
        <time>2023-12-19T11:04:58Z</time>
      </trkpt>
      <trkpt lat="43.47176" lon="1.82559">
        <ele>136.80000305176</ele>
        <time>2023-12-19T11:05:25Z</time>
      </trkpt>
      <trkpt lat="43.47176" lon="1.82559">
        <ele>136.80000305176</ele>
        <time>2023-12-19T11:05:46Z</time>
      </trkpt>
      <trkpt lat="43.47176" lon="1.82559">
        <ele>136.60000610352</ele>
        <time>2023-12-19T11:06:10Z</time>
      </trkpt>
      <trkpt lat="43.47174" lon="1.82562">
        <ele>137.60000610352</ele>
        <time>2023-12-19T11:06:33Z</time>
      </trkpt>
      <trkpt lat="43.47166" lon="1.82584">
        <ele>136.80000305176</ele>
        <time>2023-12-19T11:06:54Z</time>
      </trkpt>
      <trkpt lat="43.47154" lon="1.82605">
        <ele>137</ele>
        <time>2023-12-19T11:07:14Z</time>
      </trkpt>
      <trkpt lat="43.47142" lon="1.82629">
        <ele>137.80000305176</ele>
        <time>2023-12-19T11:07:36Z</time>
      </trkpt>
      <trkpt lat="43.47128" lon="1.82656">
        <ele>138.19999694824</ele>
        <time>2023-12-19T11:08:01Z</time>
      </trkpt>
      <trkpt lat="43.47119" lon="1.82671">
        <ele>138.39999389648</ele>
        <time>2023-12-19T11:08:16Z</time>
      </trkpt>
      <trkpt lat="43.47119" lon="1.82673">
        <ele>138.39999389648</ele>
        <time>2023-12-19T11:08:17Z</time>
      </trkpt>
      <trkpt lat="43.47108" lon="1.82693">
        <ele>139.19999694824</ele>
        <time>2023-12-19T11:08:35Z</time>
      </trkpt>
      <trkpt lat="43.47097" lon="1.82714">
        <ele>139.80000305176</ele>
        <time>2023-12-19T11:08:55Z</time>
      </trkpt>
      <trkpt lat="43.47089" lon="1.82733">
        <ele>140.80000305176</ele>
        <time>2023-12-19T11:09:13Z</time>
      </trkpt>
      <trkpt lat="43.47082" lon="1.82753">
        <ele>141.60000610352</ele>
        <time>2023-12-19T11:09:31Z</time>
      </trkpt>
      <trkpt lat="43.47074" lon="1.82778">
        <ele>142.39999389648</ele>
        <time>2023-12-19T11:09:52Z</time>
      </trkpt>
      <trkpt lat="43.47068" lon="1.82798">
        <ele>142.80000305176</ele>
        <time>2023-12-19T11:10:10Z</time>
      </trkpt>
      <trkpt lat="43.47059" lon="1.82823">
        <ele>143.39999389648</ele>
        <time>2023-12-19T11:10:32Z</time>
      </trkpt>
      <trkpt lat="43.47048" lon="1.82849">
        <ele>143.60000610352</ele>
        <time>2023-12-19T11:10:54Z</time>
      </trkpt>
      <trkpt lat="43.47036" lon="1.82874">
        <ele>144.19999694824</ele>
        <time>2023-12-19T11:11:17Z</time>
      </trkpt>
      <trkpt lat="43.47025" lon="1.82897">
        <ele>144.60000610352</ele>
        <time>2023-12-19T11:11:38Z</time>
      </trkpt>
      <trkpt lat="43.47015" lon="1.82917">
        <ele>145.19999694824</ele>
        <time>2023-12-19T11:11:57Z</time>
      </trkpt>
      <trkpt lat="43.47005" lon="1.82939">
        <ele>146</ele>
        <time>2023-12-19T11:12:17Z</time>
      </trkpt>
      <trkpt lat="43.46995" lon="1.82968">
        <ele>147.19999694824</ele>
        <time>2023-12-19T11:12:40Z</time>
      </trkpt>
      <trkpt lat="43.46986" lon="1.82993">
        <ele>148</ele>
        <time>2023-12-19T11:13:00Z</time>
      </trkpt>
      <trkpt lat="43.46978" lon="1.83016">
        <ele>148.80000305176</ele>
        <time>2023-12-19T11:13:19Z</time>
      </trkpt>
      <trkpt lat="43.46969" lon="1.83037">
        <ele>149.39999389648</ele>
        <time>2023-12-19T11:13:37Z</time>
      </trkpt>
      <trkpt lat="43.4696" lon="1.8306">
        <ele>150.19999694824</ele>
        <time>2023-12-19T11:13:56Z</time>
      </trkpt>
      <trkpt lat="43.46952" lon="1.83087">
        <ele>151</ele>
        <time>2023-12-19T11:14:17Z</time>
      </trkpt>
      <trkpt lat="43.46946" lon="1.83114">
        <ele>152</ele>
        <time>2023-12-19T11:14:38Z</time>
      </trkpt>
      <trkpt lat="43.46943" lon="1.83146">
        <ele>152.80000305176</ele>
        <time>2023-12-19T11:15:01Z</time>
      </trkpt>
      <trkpt lat="43.46941" lon="1.83172">
        <ele>153.60000610352</ele>
        <time>2023-12-19T11:15:21Z</time>
      </trkpt>
      <trkpt lat="43.46939" lon="1.83198">
        <ele>154.39999389648</ele>
        <time>2023-12-19T11:15:41Z</time>
      </trkpt>
      <trkpt lat="43.46935" lon="1.83228">
        <ele>155.19999694824</ele>
        <time>2023-12-19T11:16:04Z</time>
      </trkpt>
      <trkpt lat="43.46929" lon="1.83252">
        <ele>155.80000305176</ele>
        <time>2023-12-19T11:16:24Z</time>
      </trkpt>
      <trkpt lat="43.46923" lon="1.83273">
        <ele>156.39999389648</ele>
        <time>2023-12-19T11:16:43Z</time>
      </trkpt>
      <trkpt lat="43.4692" lon="1.83283">
        <ele>157.39999389648</ele>
        <time>2023-12-19T11:16:58Z</time>
      </trkpt>
      <trkpt lat="43.4692" lon="1.83284">
        <ele>157.80000305176</ele>
        <time>2023-12-19T11:17:16Z</time>
      </trkpt>
      <trkpt lat="43.4692" lon="1.83284">
        <ele>157.39999389648</ele>
        <time>2023-12-19T11:17:37Z</time>
      </trkpt>
      <trkpt lat="43.4692" lon="1.83284">
        <ele>157.60000610352</ele>
        <time>2023-12-19T11:18:02Z</time>
      </trkpt>
      <trkpt lat="43.4692" lon="1.83284">
        <ele>157.80000305176</ele>
        <time>2023-12-19T11:18:28Z</time>
      </trkpt>
      <trkpt lat="43.4692" lon="1.83284">
        <ele>157.60000610352</ele>
        <time>2023-12-19T11:18:53Z</time>
      </trkpt>
      <trkpt lat="43.4692" lon="1.83287">
        <ele>157.80000305176</ele>
        <time>2023-12-19T11:19:15Z</time>
      </trkpt>
      <trkpt lat="43.46929" lon="1.83297">
        <ele>158.19999694824</ele>
        <time>2023-12-19T11:19:33Z</time>
      </trkpt>
      <trkpt lat="43.46944" lon="1.83302">
        <ele>158.60000610352</ele>
        <time>2023-12-19T11:19:50Z</time>
      </trkpt>
      <trkpt lat="43.46957" lon="1.83307">
        <ele>159.19999694824</ele>
        <time>2023-12-19T11:20:06Z</time>
      </trkpt>
      <trkpt lat="43.46971" lon="1.83316">
        <ele>160</ele>
        <time>2023-12-19T11:20:24Z</time>
      </trkpt>
      <trkpt lat="43.46975" lon="1.83322">
        <ele>161.39999389648</ele>
        <time>2023-12-19T11:20:40Z</time>
      </trkpt>
      <trkpt lat="43.46975" lon="1.83324">
        <ele>162.39999389648</ele>
        <time>2023-12-19T11:21:01Z</time>
      </trkpt>
      <trkpt lat="43.46975" lon="1.83324">
        <ele>162.19999694824</ele>
        <time>2023-12-19T11:21:18Z</time>
      </trkpt>
      <trkpt lat="43.46978" lon="1.83328">
        <ele>162.19999694824</ele>
        <time>2023-12-19T11:21:32Z</time>
      </trkpt>
      <trkpt lat="43.46982" lon="1.8333">
        <ele>162.39999389648</ele>
        <time>2023-12-19T11:21:38Z</time>
      </trkpt>
      <trkpt lat="43.46983" lon="1.8333">
        <ele>162.39999389648</ele>
        <time>2023-12-19T11:21:39Z</time>
      </trkpt>
      <trkpt lat="43.46984" lon="1.8333">
        <ele>162.39999389648</ele>
        <time>2023-12-19T11:21:40Z</time>
      </trkpt>
      <trkpt lat="43.46986" lon="1.8333">
        <ele>162.39999389648</ele>
        <time>2023-12-19T11:21:41Z</time>
      </trkpt>
      <trkpt lat="43.46987" lon="1.8333">
        <ele>162.60000610352</ele>
        <time>2023-12-19T11:21:42Z</time>
      </trkpt>
      <trkpt lat="43.46988" lon="1.83331">
        <ele>162.60000610352</ele>
        <time>2023-12-19T11:21:43Z</time>
      </trkpt>
      <trkpt lat="43.4702" lon="1.83341">
        <ele>164.19999694824</ele>
        <time>2023-12-19T11:22:08Z</time>
      </trkpt>
      <trkpt lat="43.47047" lon="1.8335">
        <ele>165.60000610352</ele>
        <time>2023-12-19T11:22:34Z</time>
      </trkpt>
      <trkpt lat="43.47064" lon="1.83357">
        <ele>166.80000305176</ele>
        <time>2023-12-19T11:22:53Z</time>
      </trkpt>
      <trkpt lat="43.47083" lon="1.83362">
        <ele>167.39999389648</ele>
        <time>2023-12-19T11:23:14Z</time>
      </trkpt>
      <trkpt lat="43.47102" lon="1.83369">
        <ele>168</ele>
        <time>2023-12-19T11:23:35Z</time>
      </trkpt>
      <trkpt lat="43.47121" lon="1.83375">
        <ele>169</ele>
        <time>2023-12-19T11:23:56Z</time>
      </trkpt>
      <trkpt lat="43.47139" lon="1.83382">
        <ele>170</ele>
        <time>2023-12-19T11:24:16Z</time>
      </trkpt>
      <trkpt lat="43.47142" lon="1.83389">
        <ele>170.19999694824</ele>
        <time>2023-12-19T11:24:23Z</time>
      </trkpt>
      <trkpt lat="43.47142" lon="1.83419">
        <ele>171</ele>
        <time>2023-12-19T11:24:45Z</time>
      </trkpt>
      <trkpt lat="43.47142" lon="1.83422">
        <ele>171.39999389648</ele>
        <time>2023-12-19T11:25:03Z</time>
      </trkpt>
      <trkpt lat="43.47142" lon="1.83423">
        <ele>171.39999389648</ele>
        <time>2023-12-19T11:25:25Z</time>
      </trkpt>
      <trkpt lat="43.47142" lon="1.83423">
        <ele>171.60000610352</ele>
        <time>2023-12-19T11:25:45Z</time>
      </trkpt>
      <trkpt lat="43.47142" lon="1.83425">
        <ele>170.80000305176</ele>
        <time>2023-12-19T11:26:08Z</time>
      </trkpt>
      <trkpt lat="43.47142" lon="1.83425">
        <ele>171.60000610352</ele>
        <time>2023-12-19T11:26:36Z</time>
      </trkpt>
      <trkpt lat="43.47142" lon="1.83425">
        <ele>171.60000610352</ele>
        <time>2023-12-19T11:27:03Z</time>
      </trkpt>
      <trkpt lat="43.4714" lon="1.83429">
        <ele>171.19999694824</ele>
        <time>2023-12-19T11:27:09Z</time>
      </trkpt>
      <trkpt lat="43.4714" lon="1.83431">
        <ele>171.19999694824</ele>
        <time>2023-12-19T11:27:10Z</time>
      </trkpt>
      <trkpt lat="43.47139" lon="1.83432">
        <ele>171.19999694824</ele>
        <time>2023-12-19T11:27:11Z</time>
      </trkpt>
      <trkpt lat="43.47127" lon="1.83455">
        <ele>171.19999694824</ele>
        <time>2023-12-19T11:27:31Z</time>
      </trkpt>
      <trkpt lat="43.47118" lon="1.83471">
        <ele>171.19999694824</ele>
        <time>2023-12-19T11:27:46Z</time>
      </trkpt>
      <trkpt lat="43.47117" lon="1.83472">
        <ele>171.19999694824</ele>
        <time>2023-12-19T11:27:47Z</time>
      </trkpt>
      <trkpt lat="43.47111" lon="1.83482">
        <ele>171.39999389648</ele>
        <time>2023-12-19T11:28:04Z</time>
      </trkpt>
      <trkpt lat="43.47108" lon="1.83489">
        <ele>171.39999389648</ele>
        <time>2023-12-19T11:28:23Z</time>
      </trkpt>
      <trkpt lat="43.47103" lon="1.83494">
        <ele>171.60000610352</ele>
        <time>2023-12-19T11:28:37Z</time>
      </trkpt>
      <trkpt lat="43.47105" lon="1.83489">
        <ele>171.39999389648</ele>
        <time>2023-12-19T11:28:50Z</time>
      </trkpt>
      <trkpt lat="43.4711" lon="1.83483">
        <ele>171</ele>
        <time>2023-12-19T11:29:06Z</time>
      </trkpt>
      <trkpt lat="43.47111" lon="1.83483">
        <ele>171.39999389648</ele>
        <time>2023-12-19T11:29:21Z</time>
      </trkpt>
      <trkpt lat="43.47113" lon="1.83481">
        <ele>170.80000305176</ele>
        <time>2023-12-19T11:29:39Z</time>
      </trkpt>
      <trkpt lat="43.47111" lon="1.83482">
        <ele>170.80000305176</ele>
        <time>2023-12-19T11:30:00Z</time>
      </trkpt>
      <trkpt lat="43.47111" lon="1.83483">
        <ele>170.39999389648</ele>
        <time>2023-12-19T11:30:25Z</time>
      </trkpt>
      <trkpt lat="43.47111" lon="1.83482">
        <ele>168.19999694824</ele>
        <time>2023-12-19T11:30:36Z</time>
      </trkpt>
      <trkpt lat="43.47111" lon="1.83482">
        <ele>169.19999694824</ele>
        <time>2023-12-19T11:32:38Z</time>
      </trkpt>
      <trkpt lat="43.47111" lon="1.83482">
        <ele>169.19999694824</ele>
        <time>2023-12-19T11:34:22Z</time>
      </trkpt>
      <trkpt lat="43.4711" lon="1.83482">
        <ele>168.80000305176</ele>
        <time>2023-12-19T11:37:13Z</time>
      </trkpt>
      <trkpt lat="43.4711" lon="1.83482">
        <ele>169.19999694824</ele>
        <time>2023-12-19T11:39:29Z</time>
      </trkpt>
      <trkpt lat="43.4711" lon="1.83483">
        <ele>169</ele>
        <time>2023-12-19T11:43:09Z</time>
      </trkpt>
      <trkpt lat="43.4711" lon="1.83483">
        <ele>169.19999694824</ele>
        <time>2023-12-19T11:44:51Z</time>
      </trkpt>
      <trkpt lat="43.4711" lon="1.83483">
        <ele>169</ele>
        <time>2023-12-19T11:46:47Z</time>
      </trkpt>
      <trkpt lat="43.4711" lon="1.83483">
        <ele>169.19999694824</ele>
        <time>2023-12-19T11:48:09Z</time>
      </trkpt>
      <trkpt lat="43.4711" lon="1.83483">
        <ele>169.19999694824</ele>
        <time>2023-12-19T11:50:47Z</time>
      </trkpt>
      <trkpt lat="43.47111" lon="1.83483">
        <ele>169.19999694824</ele>
        <time>2023-12-19T11:52:50Z</time>
      </trkpt>
      <trkpt lat="43.4711" lon="1.83483">
        <ele>168.80000305176</ele>
        <time>2023-12-19T11:54:34Z</time>
      </trkpt>
      <trkpt lat="43.47111" lon="1.83482">
        <ele>168.80000305176</ele>
        <time>2023-12-19T11:56:37Z</time>
      </trkpt>
      <trkpt lat="43.47111" lon="1.83483">
        <ele>170.80000305176</ele>
        <time>2023-12-19T11:57:56Z</time>
      </trkpt>
      <trkpt lat="43.47111" lon="1.83482">
        <ele>171</ele>
        <time>2023-12-19T11:58:06Z</time>
      </trkpt>
      <trkpt lat="43.47111" lon="1.83482">
        <ele>170</ele>
        <time>2023-12-19T11:58:27Z</time>
      </trkpt>
      <trkpt lat="43.4711" lon="1.83482">
        <ele>170</ele>
        <time>2023-12-19T11:58:48Z</time>
      </trkpt>
      <trkpt lat="43.4711" lon="1.83482">
        <ele>170</ele>
        <time>2023-12-19T11:59:14Z</time>
      </trkpt>
      <trkpt lat="43.47109" lon="1.83482">
        <ele>169.80000305176</ele>
        <time>2023-12-19T11:59:36Z</time>
      </trkpt>
      <trkpt lat="43.47104" lon="1.83488">
        <ele>169.80000305176</ele>
        <time>2023-12-19T11:59:53Z</time>
      </trkpt>
      <trkpt lat="43.47104" lon="1.83488">
        <ele>169.80000305176</ele>
        <time>2023-12-19T12:00:23Z</time>
      </trkpt>
      <trkpt lat="43.47103" lon="1.83491">
        <ele>170.19999694824</ele>
        <time>2023-12-19T12:00:46Z</time>
      </trkpt>
      <trkpt lat="43.47103" lon="1.83493">
        <ele>170.19999694824</ele>
        <time>2023-12-19T12:01:02Z</time>
      </trkpt>
      <trkpt lat="43.47103" lon="1.83494">
        <ele>170.39999389648</ele>
        <time>2023-12-19T12:01:26Z</time>
      </trkpt>
      <trkpt lat="43.47103" lon="1.83494">
        <ele>170.39999389648</ele>
        <time>2023-12-19T12:01:49Z</time>
      </trkpt>
      <trkpt lat="43.47102" lon="1.83493">
        <ele>170.39999389648</ele>
        <time>2023-12-19T12:02:12Z</time>
      </trkpt>
      <trkpt lat="43.47094" lon="1.835">
        <ele>170.19999694824</ele>
        <time>2023-12-19T12:02:29Z</time>
      </trkpt>
      <trkpt lat="43.47087" lon="1.83512">
        <ele>170.39999389648</ele>
        <time>2023-12-19T12:02:51Z</time>
      </trkpt>
      <trkpt lat="43.47083" lon="1.83519">
        <ele>170.60000610352</ele>
        <time>2023-12-19T12:03:15Z</time>
      </trkpt>
      <trkpt lat="43.47072" lon="1.83539">
        <ele>170.60000610352</ele>
        <time>2023-12-19T12:03:39Z</time>
      </trkpt>
      <trkpt lat="43.47068" lon="1.83552">
        <ele>170.80000305176</ele>
        <time>2023-12-19T12:03:59Z</time>
      </trkpt>
      <trkpt lat="43.47064" lon="1.83554">
        <ele>170.80000305176</ele>
        <time>2023-12-19T12:04:13Z</time>
      </trkpt>
      <trkpt lat="43.47062" lon="1.83557">
        <ele>171.19999694824</ele>
        <time>2023-12-19T12:04:23Z</time>
      </trkpt>
      <trkpt lat="43.47061" lon="1.83558">
        <ele>171</ele>
        <time>2023-12-19T12:04:24Z</time>
      </trkpt>
      <trkpt lat="43.47045" lon="1.83586">
        <ele>170.19999694824</ele>
        <time>2023-12-19T12:04:50Z</time>
      </trkpt>
      <trkpt lat="43.47043" lon="1.8359">
        <ele>170.19999694824</ele>
        <time>2023-12-19T12:04:54Z</time>
      </trkpt>
      <trkpt lat="43.47043" lon="1.83591">
        <ele>170.19999694824</ele>
        <time>2023-12-19T12:04:55Z</time>
      </trkpt>
      <trkpt lat="43.47027" lon="1.8362">
        <ele>169.60000610352</ele>
        <time>2023-12-19T12:05:20Z</time>
      </trkpt>
      <trkpt lat="43.4701" lon="1.83659">
        <ele>169</ele>
        <time>2023-12-19T12:05:50Z</time>
      </trkpt>
      <trkpt lat="43.46995" lon="1.83699">
        <ele>167.80000305176</ele>
        <time>2023-12-19T12:06:19Z</time>
      </trkpt>
      <trkpt lat="43.46978" lon="1.8374">
        <ele>166.80000305176</ele>
        <time>2023-12-19T12:06:50Z</time>
      </trkpt>
      <trkpt lat="43.46962" lon="1.83773">
        <ele>166.19999694824</ele>
        <time>2023-12-19T12:07:15Z</time>
      </trkpt>
      <trkpt lat="43.46945" lon="1.8381">
        <ele>164.19999694824</ele>
        <time>2023-12-19T12:07:42Z</time>
      </trkpt>
      <trkpt lat="43.46934" lon="1.83836">
        <ele>163.39999389648</ele>
        <time>2023-12-19T12:08:01Z</time>
      </trkpt>
      <trkpt lat="43.46921" lon="1.83867">
        <ele>162.39999389648</ele>
        <time>2023-12-19T12:08:23Z</time>
      </trkpt>
      <trkpt lat="43.46901" lon="1.83904">
        <ele>160.60000610352</ele>
        <time>2023-12-19T12:08:51Z</time>
      </trkpt>
      <trkpt lat="43.46869" lon="1.83917">
        <ele>157.60000610352</ele>
        <time>2023-12-19T12:09:19Z</time>
      </trkpt>
      <trkpt lat="43.46844" lon="1.83926">
        <ele>156.39999389648</ele>
        <time>2023-12-19T12:09:42Z</time>
      </trkpt>
      <trkpt lat="43.46823" lon="1.83939">
        <ele>156.19999694824</ele>
        <time>2023-12-19T12:10:01Z</time>
      </trkpt>
      <trkpt lat="43.468" lon="1.83954">
        <ele>156.39999389648</ele>
        <time>2023-12-19T12:10:22Z</time>
      </trkpt>
      <trkpt lat="43.46776" lon="1.8397">
        <ele>156.19999694824</ele>
        <time>2023-12-19T12:10:45Z</time>
      </trkpt>
      <trkpt lat="43.46753" lon="1.83988">
        <ele>156</ele>
        <time>2023-12-19T12:11:07Z</time>
      </trkpt>
      <trkpt lat="43.46727" lon="1.84011">
        <ele>156</ele>
        <time>2023-12-19T12:11:32Z</time>
      </trkpt>
      <trkpt lat="43.467" lon="1.84036">
        <ele>156.80000305176</ele>
        <time>2023-12-19T12:12:00Z</time>
      </trkpt>
      <trkpt lat="43.46674" lon="1.8406">
        <ele>157.80000305176</ele>
        <time>2023-12-19T12:12:27Z</time>
      </trkpt>
      <trkpt lat="43.46649" lon="1.84083">
        <ele>159.80000305176</ele>
        <time>2023-12-19T12:12:53Z</time>
      </trkpt>
      <trkpt lat="43.46627" lon="1.84104">
        <ele>161.39999389648</ele>
        <time>2023-12-19T12:13:18Z</time>
      </trkpt>
      <trkpt lat="43.46608" lon="1.8412">
        <ele>162.80000305176</ele>
        <time>2023-12-19T12:13:38Z</time>
      </trkpt>
      <trkpt lat="43.46584" lon="1.84148">
        <ele>164.39999389648</ele>
        <time>2023-12-19T12:14:06Z</time>
      </trkpt>
      <trkpt lat="43.46555" lon="1.84177">
        <ele>165.60000610352</ele>
        <time>2023-12-19T12:14:37Z</time>
      </trkpt>
      <trkpt lat="43.46529" lon="1.84204">
        <ele>166.19999694824</ele>
        <time>2023-12-19T12:15:05Z</time>
      </trkpt>
      <trkpt lat="43.46516" lon="1.84218">
        <ele>166.80000305176</ele>
        <time>2023-12-19T12:15:30Z</time>
      </trkpt>
      <trkpt lat="43.46513" lon="1.84219">
        <ele>167</ele>
        <time>2023-12-19T12:15:37Z</time>
      </trkpt>
      <trkpt lat="43.46512" lon="1.8422">
        <ele>167</ele>
        <time>2023-12-19T12:15:38Z</time>
      </trkpt>
      <trkpt lat="43.46511" lon="1.84221">
        <ele>167</ele>
        <time>2023-12-19T12:15:39Z</time>
      </trkpt>
      <trkpt lat="43.4651" lon="1.84221">
        <ele>166.80000305176</ele>
        <time>2023-12-19T12:15:40Z</time>
      </trkpt>
      <trkpt lat="43.46509" lon="1.84221">
        <ele>166.80000305176</ele>
        <time>2023-12-19T12:15:41Z</time>
      </trkpt>
      <trkpt lat="43.46508" lon="1.84221">
        <ele>166.80000305176</ele>
        <time>2023-12-19T12:15:42Z</time>
      </trkpt>
      <trkpt lat="43.46503" lon="1.84221">
        <ele>166.80000305176</ele>
        <time>2023-12-19T12:15:47Z</time>
      </trkpt>
      <trkpt lat="43.465" lon="1.8422">
        <ele>166.60000610352</ele>
        <time>2023-12-19T12:15:50Z</time>
      </trkpt>
      <trkpt lat="43.4649" lon="1.84223">
        <ele>166.19999694824</ele>
        <time>2023-12-19T12:16:06Z</time>
      </trkpt>
      <trkpt lat="43.46486" lon="1.84229">
        <ele>166</ele>
        <time>2023-12-19T12:16:19Z</time>
      </trkpt>
      <trkpt lat="43.46485" lon="1.8423">
        <ele>166</ele>
        <time>2023-12-19T12:16:20Z</time>
      </trkpt>
      <trkpt lat="43.46466" lon="1.84255">
        <ele>165.19999694824</ele>
        <time>2023-12-19T12:16:44Z</time>
      </trkpt>
      <trkpt lat="43.46446" lon="1.84285">
        <ele>164.80000305176</ele>
        <time>2023-12-19T12:17:10Z</time>
      </trkpt>
      <trkpt lat="43.46428" lon="1.84308">
        <ele>164.39999389648</ele>
        <time>2023-12-19T12:17:32Z</time>
      </trkpt>
      <trkpt lat="43.46407" lon="1.84328">
        <ele>164.60000610352</ele>
        <time>2023-12-19T12:17:56Z</time>
      </trkpt>
      <trkpt lat="43.46385" lon="1.8435">
        <ele>164.19999694824</ele>
        <time>2023-12-19T12:18:20Z</time>
      </trkpt>
      <trkpt lat="43.46361" lon="1.84376">
        <ele>163.19999694824</ele>
        <time>2023-12-19T12:18:48Z</time>
      </trkpt>
      <trkpt lat="43.46339" lon="1.84399">
        <ele>162.39999389648</ele>
        <time>2023-12-19T12:19:13Z</time>
      </trkpt>
      <trkpt lat="43.46319" lon="1.84429">
        <ele>160.60000610352</ele>
        <time>2023-12-19T12:19:40Z</time>
      </trkpt>
      <trkpt lat="43.463" lon="1.84458">
        <ele>157.39999389648</ele>
        <time>2023-12-19T12:20:06Z</time>
      </trkpt>
      <trkpt lat="43.46282" lon="1.84486">
        <ele>154.80000305176</ele>
        <time>2023-12-19T12:20:30Z</time>
      </trkpt>
      <trkpt lat="43.46265" lon="1.84513">
        <ele>152.80000305176</ele>
        <time>2023-12-19T12:20:53Z</time>
      </trkpt>
      <trkpt lat="43.46243" lon="1.8454">
        <ele>151.60000610352</ele>
        <time>2023-12-19T12:21:19Z</time>
      </trkpt>
      <trkpt lat="43.46225" lon="1.84573">
        <ele>151.60000610352</ele>
        <time>2023-12-19T12:21:44Z</time>
      </trkpt>
      <trkpt lat="43.46199" lon="1.846">
        <ele>152.39999389648</ele>
        <time>2023-12-19T12:22:11Z</time>
      </trkpt>
      <trkpt lat="43.46173" lon="1.8462">
        <ele>152.19999694824</ele>
        <time>2023-12-19T12:22:35Z</time>
      </trkpt>
      <trkpt lat="43.46148" lon="1.8465">
        <ele>152.19999694824</ele>
        <time>2023-12-19T12:23:02Z</time>
      </trkpt>
      <trkpt lat="43.46131" lon="1.84675">
        <ele>152.19999694824</ele>
        <time>2023-12-19T12:23:23Z</time>
      </trkpt>
      <trkpt lat="43.46111" lon="1.8471">
        <ele>152.80000305176</ele>
        <time>2023-12-19T12:23:50Z</time>
      </trkpt>
      <trkpt lat="43.46087" lon="1.84741">
        <ele>153.60000610352</ele>
        <time>2023-12-19T12:24:18Z</time>
      </trkpt>
      <trkpt lat="43.46063" lon="1.84766">
        <ele>154.39999389648</ele>
        <time>2023-12-19T12:24:44Z</time>
      </trkpt>
      <trkpt lat="43.46038" lon="1.84792">
        <ele>155.19999694824</ele>
        <time>2023-12-19T12:25:11Z</time>
      </trkpt>
      <trkpt lat="43.46018" lon="1.84811">
        <ele>156.19999694824</ele>
        <time>2023-12-19T12:25:33Z</time>
      </trkpt>
      <trkpt lat="43.4601" lon="1.84818">
        <ele>157.19999694824</ele>
        <time>2023-12-19T12:25:49Z</time>
      </trkpt>
      <trkpt lat="43.46006" lon="1.84831">
        <ele>157.19999694824</ele>
        <time>2023-12-19T12:26:01Z</time>
      </trkpt>
      <trkpt lat="43.46005" lon="1.84841">
        <ele>157.60000610352</ele>
        <time>2023-12-19T12:26:16Z</time>
      </trkpt>
      <trkpt lat="43.46" lon="1.84861">
        <ele>157</ele>
        <time>2023-12-19T12:26:37Z</time>
      </trkpt>
      <trkpt lat="43.45999" lon="1.84866">
        <ele>157</ele>
        <time>2023-12-19T12:26:41Z</time>
      </trkpt>
      <trkpt lat="43.45998" lon="1.84867">
        <ele>156.80000305176</ele>
        <time>2023-12-19T12:26:42Z</time>
      </trkpt>
      <trkpt lat="43.45998" lon="1.84868">
        <ele>156.80000305176</ele>
        <time>2023-12-19T12:26:43Z</time>
      </trkpt>
      <trkpt lat="43.45998" lon="1.8487">
        <ele>156.80000305176</ele>
        <time>2023-12-19T12:26:44Z</time>
      </trkpt>
      <trkpt lat="43.45995" lon="1.84892">
        <ele>156.39999389648</ele>
        <time>2023-12-19T12:27:00Z</time>
      </trkpt>
      <trkpt lat="43.45989" lon="1.84926">
        <ele>155.80000305176</ele>
        <time>2023-12-19T12:27:24Z</time>
      </trkpt>
      <trkpt lat="43.45985" lon="1.84962">
        <ele>155</ele>
        <time>2023-12-19T12:27:50Z</time>
      </trkpt>
      <trkpt lat="43.4598" lon="1.84977">
        <ele>155</ele>
        <time>2023-12-19T12:28:08Z</time>
      </trkpt>
      <trkpt lat="43.45972" lon="1.8497">
        <ele>155.39999389648</ele>
        <time>2023-12-19T12:28:18Z</time>
      </trkpt>
      <trkpt lat="43.45967" lon="1.84973">
        <ele>155.60000610352</ele>
        <time>2023-12-19T12:28:30Z</time>
      </trkpt>
      <trkpt lat="43.45965" lon="1.84972">
        <ele>156.39999389648</ele>
        <time>2023-12-19T12:28:54Z</time>
      </trkpt>
      <trkpt lat="43.45962" lon="1.84977">
        <ele>156.39999389648</ele>
        <time>2023-12-19T12:29:12Z</time>
      </trkpt>
      <trkpt lat="43.45959" lon="1.84981">
        <ele>156.19999694824</ele>
        <time>2023-12-19T12:29:16Z</time>
      </trkpt>
      <trkpt lat="43.4594" lon="1.85011">
        <ele>156.39999389648</ele>
        <time>2023-12-19T12:29:42Z</time>
      </trkpt>
      <trkpt lat="43.45918" lon="1.85045">
        <ele>155.80000305176</ele>
        <time>2023-12-19T12:30:11Z</time>
      </trkpt>
      <trkpt lat="43.45898" lon="1.85084">
        <ele>154.60000610352</ele>
        <time>2023-12-19T12:30:41Z</time>
      </trkpt>
      <trkpt lat="43.45889" lon="1.8513">
        <ele>154.80000305176</ele>
        <time>2023-12-19T12:31:10Z</time>
      </trkpt>
      <trkpt lat="43.45883" lon="1.85172">
        <ele>155.39999389648</ele>
        <time>2023-12-19T12:31:37Z</time>
      </trkpt>
      <trkpt lat="43.45877" lon="1.85213">
        <ele>156</ele>
        <time>2023-12-19T12:32:04Z</time>
      </trkpt>
      <trkpt lat="43.45863" lon="1.85255">
        <ele>155.39999389648</ele>
        <time>2023-12-19T12:32:32Z</time>
      </trkpt>
      <trkpt lat="43.45843" lon="1.85284">
        <ele>155</ele>
        <time>2023-12-19T12:32:56Z</time>
      </trkpt>
      <trkpt lat="43.45824" lon="1.8531">
        <ele>154.80000305176</ele>
        <time>2023-12-19T12:33:18Z</time>
      </trkpt>
      <trkpt lat="43.45798" lon="1.85334">
        <ele>155.19999694824</ele>
        <time>2023-12-19T12:33:44Z</time>
      </trkpt>
      <trkpt lat="43.45772" lon="1.85346">
        <ele>156</ele>
        <time>2023-12-19T12:34:08Z</time>
      </trkpt>
      <trkpt lat="43.45742" lon="1.85357">
        <ele>157.60000610352</ele>
        <time>2023-12-19T12:34:36Z</time>
      </trkpt>
      <trkpt lat="43.45717" lon="1.85367">
        <ele>158.60000610352</ele>
        <time>2023-12-19T12:34:59Z</time>
      </trkpt>
      <trkpt lat="43.45689" lon="1.85377">
        <ele>160.39999389648</ele>
        <time>2023-12-19T12:35:24Z</time>
      </trkpt>
      <trkpt lat="43.45661" lon="1.85388">
        <ele>161.80000305176</ele>
        <time>2023-12-19T12:35:48Z</time>
      </trkpt>
      <trkpt lat="43.45634" lon="1.85398">
        <ele>163</ele>
        <time>2023-12-19T12:36:12Z</time>
      </trkpt>
      <trkpt lat="43.45603" lon="1.85409">
        <ele>164.80000305176</ele>
        <time>2023-12-19T12:36:39Z</time>
      </trkpt>
      <trkpt lat="43.45586" lon="1.85411">
        <ele>165.80000305176</ele>
        <time>2023-12-19T12:36:57Z</time>
      </trkpt>
      <trkpt lat="43.45586" lon="1.85409">
        <ele>166</ele>
        <time>2023-12-19T12:36:58Z</time>
      </trkpt>
      <trkpt lat="43.45585" lon="1.85408">
        <ele>166</ele>
        <time>2023-12-19T12:36:59Z</time>
      </trkpt>
      <trkpt lat="43.45585" lon="1.85407">
        <ele>166</ele>
        <time>2023-12-19T12:37:00Z</time>
      </trkpt>
      <trkpt lat="43.45583" lon="1.85404">
        <ele>166</ele>
        <time>2023-12-19T12:37:03Z</time>
      </trkpt>
      <trkpt lat="43.45567" lon="1.85394">
        <ele>166.19999694824</ele>
        <time>2023-12-19T12:37:20Z</time>
      </trkpt>
      <trkpt lat="43.45552" lon="1.85387">
        <ele>165.19999694824</ele>
        <time>2023-12-19T12:37:38Z</time>
      </trkpt>
      <trkpt lat="43.4555" lon="1.85385">
        <ele>169</ele>
        <time>2023-12-19T12:37:42Z</time>
      </trkpt>
      <trkpt lat="43.45548" lon="1.85383">
        <ele>168.19999694824</ele>
        <time>2023-12-19T12:38:03Z</time>
      </trkpt>
      <trkpt lat="43.45546" lon="1.85382">
        <ele>168.19999694824</ele>
        <time>2023-12-19T12:38:31Z</time>
      </trkpt>
      <trkpt lat="43.45548" lon="1.85383">
        <ele>168.39999389648</ele>
        <time>2023-12-19T12:39:10Z</time>
      </trkpt>
      <trkpt lat="43.45549" lon="1.85384">
        <ele>166.39999389648</ele>
        <time>2023-12-19T12:39:16Z</time>
      </trkpt>
      <trkpt lat="43.4555" lon="1.85384">
        <ele>169.80000305176</ele>
        <time>2023-12-19T12:39:20Z</time>
      </trkpt>
      <trkpt lat="43.4555" lon="1.85384">
        <ele>170.80000305176</ele>
        <time>2023-12-19T12:39:22Z</time>
      </trkpt>
      <trkpt lat="43.4555" lon="1.85384">
        <ele>167.60000610352</ele>
        <time>2023-12-19T12:39:32Z</time>
      </trkpt>
      <trkpt lat="43.4555" lon="1.85385">
        <ele>165.60000610352</ele>
        <time>2023-12-19T12:40:20Z</time>
      </trkpt>
      <trkpt lat="43.4555" lon="1.85385">
        <ele>169.19999694824</ele>
        <time>2023-12-19T12:40:24Z</time>
      </trkpt>
      <trkpt lat="43.45549" lon="1.85384">
        <ele>169</ele>
        <time>2023-12-19T12:40:37Z</time>
      </trkpt>
      <trkpt lat="43.45547" lon="1.85382">
        <ele>169</ele>
        <time>2023-12-19T12:40:39Z</time>
      </trkpt>
      <trkpt lat="43.45546" lon="1.85382">
        <ele>168.80000305176</ele>
        <time>2023-12-19T12:40:40Z</time>
      </trkpt>
      <trkpt lat="43.45545" lon="1.85381">
        <ele>168.80000305176</ele>
        <time>2023-12-19T12:40:41Z</time>
      </trkpt>
      <trkpt lat="43.45544" lon="1.8538">
        <ele>168.80000305176</ele>
        <time>2023-12-19T12:40:42Z</time>
      </trkpt>
      <trkpt lat="43.45544" lon="1.85378">
        <ele>168.80000305176</ele>
        <time>2023-12-19T12:40:43Z</time>
      </trkpt>
      <trkpt lat="43.45543" lon="1.85377">
        <ele>168.60000610352</ele>
        <time>2023-12-19T12:40:44Z</time>
      </trkpt>
      <trkpt lat="43.45542" lon="1.85376">
        <ele>168.60000610352</ele>
        <time>2023-12-19T12:40:45Z</time>
      </trkpt>
      <trkpt lat="43.45541" lon="1.85375">
        <ele>168.60000610352</ele>
        <time>2023-12-19T12:40:46Z</time>
      </trkpt>
      <trkpt lat="43.45515" lon="1.85354">
        <ele>170.19999694824</ele>
        <time>2023-12-19T12:41:12Z</time>
      </trkpt>
      <trkpt lat="43.4549" lon="1.85333">
        <ele>171.39999389648</ele>
        <time>2023-12-19T12:41:37Z</time>
      </trkpt>
      <trkpt lat="43.45469" lon="1.85313">
        <ele>172.39999389648</ele>
        <time>2023-12-19T12:41:59Z</time>
      </trkpt>
      <trkpt lat="43.45446" lon="1.85296">
        <ele>173.19999694824</ele>
        <time>2023-12-19T12:42:23Z</time>
      </trkpt>
      <trkpt lat="43.45426" lon="1.85281">
        <ele>173.80000305176</ele>
        <time>2023-12-19T12:42:44Z</time>
      </trkpt>
      <trkpt lat="43.45417" lon="1.85279">
        <ele>173.80000305176</ele>
        <time>2023-12-19T12:42:53Z</time>
      </trkpt>
      <trkpt lat="43.45402" lon="1.85304">
        <ele>173.80000305176</ele>
        <time>2023-12-19T12:43:14Z</time>
      </trkpt>
      <trkpt lat="43.45399" lon="1.8531">
        <ele>173.80000305176</ele>
        <time>2023-12-19T12:43:19Z</time>
      </trkpt>
      <trkpt lat="43.45399" lon="1.85311">
        <ele>173.80000305176</ele>
        <time>2023-12-19T12:43:20Z</time>
      </trkpt>
      <trkpt lat="43.45398" lon="1.85313">
        <ele>174</ele>
        <time>2023-12-19T12:43:21Z</time>
      </trkpt>
      <trkpt lat="43.45398" lon="1.85314">
        <ele>174</ele>
        <time>2023-12-19T12:43:22Z</time>
      </trkpt>
      <trkpt lat="43.45397" lon="1.85316">
        <ele>174</ele>
        <time>2023-12-19T12:43:23Z</time>
      </trkpt>
      <trkpt lat="43.45388" lon="1.85334">
        <ele>174.60000610352</ele>
        <time>2023-12-19T12:43:39Z</time>
      </trkpt>
      <trkpt lat="43.45387" lon="1.85334">
        <ele>174.60000610352</ele>
        <time>2023-12-19T12:43:40Z</time>
      </trkpt>
      <trkpt lat="43.45386" lon="1.85335">
        <ele>174.60000610352</ele>
        <time>2023-12-19T12:43:41Z</time>
      </trkpt>
      <trkpt lat="43.45371" lon="1.85325">
        <ele>174.80000305176</ele>
        <time>2023-12-19T12:43:58Z</time>
      </trkpt>
      <trkpt lat="43.45354" lon="1.853">
        <ele>173.19999694824</ele>
        <time>2023-12-19T12:44:20Z</time>
      </trkpt>
      <trkpt lat="43.45331" lon="1.85268">
        <ele>170.60000610352</ele>
        <time>2023-12-19T12:44:48Z</time>
      </trkpt>
      <trkpt lat="43.45318" lon="1.85246">
        <ele>168.80000305176</ele>
        <time>2023-12-19T12:45:06Z</time>
      </trkpt>
      <trkpt lat="43.45302" lon="1.85229">
        <ele>167.39999389648</ele>
        <time>2023-12-19T12:45:24Z</time>
      </trkpt>
      <trkpt lat="43.45284" lon="1.85204">
        <ele>164.39999389648</ele>
        <time>2023-12-19T12:45:47Z</time>
      </trkpt>
      <trkpt lat="43.4527" lon="1.85171">
        <ele>161.39999389648</ele>
        <time>2023-12-19T12:46:14Z</time>
      </trkpt>
      <trkpt lat="43.45282" lon="1.85149">
        <ele>159.80000305176</ele>
        <time>2023-12-19T12:46:33Z</time>
      </trkpt>
      <trkpt lat="43.4528" lon="1.85146">
        <ele>159.60000610352</ele>
        <time>2023-12-19T12:46:47Z</time>
      </trkpt>
      <trkpt lat="43.45278" lon="1.85144">
        <ele>160.19999694824</ele>
        <time>2023-12-19T12:47:09Z</time>
      </trkpt>
      <trkpt lat="43.45277" lon="1.85143">
        <ele>160.19999694824</ele>
        <time>2023-12-19T12:47:10Z</time>
      </trkpt>
      <trkpt lat="43.45276" lon="1.85142">
        <ele>160.19999694824</ele>
        <time>2023-12-19T12:47:11Z</time>
      </trkpt>
      <trkpt lat="43.45275" lon="1.85141">
        <ele>160.19999694824</ele>
        <time>2023-12-19T12:47:12Z</time>
      </trkpt>
      <trkpt lat="43.45259" lon="1.85124">
        <ele>161.19999694824</ele>
        <time>2023-12-19T12:47:32Z</time>
      </trkpt>
      <trkpt lat="43.45241" lon="1.85107">
        <ele>163.19999694824</ele>
        <time>2023-12-19T12:47:52Z</time>
      </trkpt>
      <trkpt lat="43.45223" lon="1.85088">
        <ele>166</ele>
        <time>2023-12-19T12:48:12Z</time>
      </trkpt>
      <trkpt lat="43.45198" lon="1.85065">
        <ele>168.39999389648</ele>
        <time>2023-12-19T12:48:38Z</time>
      </trkpt>
      <trkpt lat="43.45176" lon="1.85045">
        <ele>169.19999694824</ele>
        <time>2023-12-19T12:49:01Z</time>
      </trkpt>
      <trkpt lat="43.45158" lon="1.85026">
        <ele>169.60000610352</ele>
        <time>2023-12-19T12:49:22Z</time>
      </trkpt>
      <trkpt lat="43.45138" lon="1.85007">
        <ele>169.60000610352</ele>
        <time>2023-12-19T12:49:45Z</time>
      </trkpt>
      <trkpt lat="43.45115" lon="1.84985">
        <ele>169.39999389648</ele>
        <time>2023-12-19T12:50:10Z</time>
      </trkpt>
      <trkpt lat="43.45095" lon="1.84964">
        <ele>168.39999389648</ele>
        <time>2023-12-19T12:50:33Z</time>
      </trkpt>
      <trkpt lat="43.45075" lon="1.84967">
        <ele>166</ele>
        <time>2023-12-19T12:50:54Z</time>
      </trkpt>
      <trkpt lat="43.45064" lon="1.84969">
        <ele>163.60000610352</ele>
        <time>2023-12-19T12:51:10Z</time>
      </trkpt>
      <trkpt lat="43.45051" lon="1.84973">
        <ele>160.39999389648</ele>
        <time>2023-12-19T12:51:28Z</time>
      </trkpt>
      <trkpt lat="43.45042" lon="1.84976">
        <ele>157.39999389648</ele>
        <time>2023-12-19T12:51:41Z</time>
      </trkpt>
      <trkpt lat="43.45031" lon="1.84979">
        <ele>154.19999694824</ele>
        <time>2023-12-19T12:51:56Z</time>
      </trkpt>
      <trkpt lat="43.4502" lon="1.84984">
        <ele>151.19999694824</ele>
        <time>2023-12-19T12:52:08Z</time>
      </trkpt>
      <trkpt lat="43.45008" lon="1.84988">
        <ele>148</ele>
        <time>2023-12-19T12:52:21Z</time>
      </trkpt>
      <trkpt lat="43.44991" lon="1.84997">
        <ele>145</ele>
        <time>2023-12-19T12:52:38Z</time>
      </trkpt>
      <trkpt lat="43.44974" lon="1.85002">
        <ele>142.39999389648</ele>
        <time>2023-12-19T12:52:57Z</time>
      </trkpt>
      <trkpt lat="43.44968" lon="1.85005">
        <ele>141.80000305176</ele>
        <time>2023-12-19T12:53:14Z</time>
      </trkpt>
      <trkpt lat="43.44966" lon="1.85008">
        <ele>141.80000305176</ele>
        <time>2023-12-19T12:53:32Z</time>
      </trkpt>
      <trkpt lat="43.44966" lon="1.85008">
        <ele>141.80000305176</ele>
        <time>2023-12-19T12:54:05Z</time>
      </trkpt>
      <trkpt lat="43.44967" lon="1.85007">
        <ele>142.19999694824</ele>
        <time>2023-12-19T12:54:37Z</time>
      </trkpt>
      <trkpt lat="43.44967" lon="1.85007">
        <ele>142.60000610352</ele>
        <time>2023-12-19T12:55:15Z</time>
      </trkpt>
      <trkpt lat="43.44967" lon="1.85007">
        <ele>143</ele>
        <time>2023-12-19T12:55:52Z</time>
      </trkpt>
      <trkpt lat="43.44967" lon="1.85006">
        <ele>143.60000610352</ele>
        <time>2023-12-19T12:56:26Z</time>
      </trkpt>
      <trkpt lat="43.44967" lon="1.85007">
        <ele>143.60000610352</ele>
        <time>2023-12-19T12:56:59Z</time>
      </trkpt>
      <trkpt lat="43.44967" lon="1.85007">
        <ele>145</ele>
        <time>2023-12-19T12:57:12Z</time>
      </trkpt>
      <trkpt lat="43.44967" lon="1.85007">
        <ele>144.19999694824</ele>
        <time>2023-12-19T12:57:38Z</time>
      </trkpt>
      <trkpt lat="43.44967" lon="1.85008">
        <ele>144.60000610352</ele>
        <time>2023-12-19T12:58:08Z</time>
      </trkpt>
      <trkpt lat="43.44958" lon="1.85022">
        <ele>145.19999694824</ele>
        <time>2023-12-19T12:58:26Z</time>
      </trkpt>
      <trkpt lat="43.4495" lon="1.85032">
        <ele>146</ele>
        <time>2023-12-19T12:58:54Z</time>
      </trkpt>
      <trkpt lat="43.44932" lon="1.85056">
        <ele>149</ele>
        <time>2023-12-19T12:59:21Z</time>
      </trkpt>
      <trkpt lat="43.44913" lon="1.85077">
        <ele>151.60000610352</ele>
        <time>2023-12-19T12:59:45Z</time>
      </trkpt>
      <trkpt lat="43.44898" lon="1.85095">
        <ele>153.60000610352</ele>
        <time>2023-12-19T13:00:06Z</time>
      </trkpt>
      <trkpt lat="43.44884" lon="1.85107">
        <ele>155.80000305176</ele>
        <time>2023-12-19T13:00:26Z</time>
      </trkpt>
      <trkpt lat="43.44881" lon="1.85108">
        <ele>156.19999694824</ele>
        <time>2023-12-19T13:00:29Z</time>
      </trkpt>
      <trkpt lat="43.44878" lon="1.85108">
        <ele>156.39999389648</ele>
        <time>2023-12-19T13:00:32Z</time>
      </trkpt>
      <trkpt lat="43.44858" lon="1.851">
        <ele>156.60000610352</ele>
        <time>2023-12-19T13:00:52Z</time>
      </trkpt>
      <trkpt lat="43.44841" lon="1.85092">
        <ele>157.39999389648</ele>
        <time>2023-12-19T13:01:12Z</time>
      </trkpt>
      <trkpt lat="43.44831" lon="1.85084">
        <ele>159</ele>
        <time>2023-12-19T13:01:29Z</time>
      </trkpt>
      <trkpt lat="43.4482" lon="1.85077">
        <ele>161.19999694824</ele>
        <time>2023-12-19T13:01:46Z</time>
      </trkpt>
      <trkpt lat="43.44806" lon="1.8507">
        <ele>163.19999694824</ele>
        <time>2023-12-19T13:02:04Z</time>
      </trkpt>
      <trkpt lat="43.44793" lon="1.85063">
        <ele>165.39999389648</ele>
        <time>2023-12-19T13:02:20Z</time>
      </trkpt>
      <trkpt lat="43.44778" lon="1.85056">
        <ele>167.39999389648</ele>
        <time>2023-12-19T13:02:38Z</time>
      </trkpt>
      <trkpt lat="43.44763" lon="1.85048">
        <ele>169.60000610352</ele>
        <time>2023-12-19T13:02:57Z</time>
      </trkpt>
      <trkpt lat="43.44748" lon="1.8504">
        <ele>172.19999694824</ele>
        <time>2023-12-19T13:03:17Z</time>
      </trkpt>
      <trkpt lat="43.44735" lon="1.85028">
        <ele>173.80000305176</ele>
        <time>2023-12-19T13:03:36Z</time>
      </trkpt>
      <trkpt lat="43.44736" lon="1.85011">
        <ele>173.80000305176</ele>
        <time>2023-12-19T13:03:54Z</time>
      </trkpt>
      <trkpt lat="43.44738" lon="1.85">
        <ele>173.60000610352</ele>
        <time>2023-12-19T13:04:12Z</time>
      </trkpt>
      <trkpt lat="43.44738" lon="1.84998">
        <ele>173.60000610352</ele>
        <time>2023-12-19T13:04:36Z</time>
      </trkpt>
      <trkpt lat="43.44738" lon="1.84993">
        <ele>173.60000610352</ele>
        <time>2023-12-19T13:05:02Z</time>
      </trkpt>
      <trkpt lat="43.44738" lon="1.84988">
        <ele>173.80000305176</ele>
        <time>2023-12-19T13:05:16Z</time>
      </trkpt>
      <trkpt lat="43.44739" lon="1.84976">
        <ele>173.60000610352</ele>
        <time>2023-12-19T13:05:33Z</time>
      </trkpt>
      <trkpt lat="43.44744" lon="1.84953">
        <ele>173.19999694824</ele>
        <time>2023-12-19T13:05:52Z</time>
      </trkpt>
      <trkpt lat="43.44748" lon="1.84939">
        <ele>172</ele>
        <time>2023-12-19T13:06:05Z</time>
      </trkpt>
      <trkpt lat="43.44758" lon="1.84913">
        <ele>169</ele>
        <time>2023-12-19T13:06:25Z</time>
      </trkpt>
      <trkpt lat="43.44765" lon="1.84892">
        <ele>167.60000610352</ele>
        <time>2023-12-19T13:06:42Z</time>
      </trkpt>
      <trkpt lat="43.44765" lon="1.8489">
        <ele>167.39999389648</ele>
        <time>2023-12-19T13:06:43Z</time>
      </trkpt>
      <trkpt lat="43.44765" lon="1.84889">
        <ele>167.39999389648</ele>
        <time>2023-12-19T13:06:44Z</time>
      </trkpt>
      <trkpt lat="43.44766" lon="1.84887">
        <ele>167.39999389648</ele>
        <time>2023-12-19T13:06:45Z</time>
      </trkpt>
      <trkpt lat="43.44766" lon="1.84886">
        <ele>167.39999389648</ele>
        <time>2023-12-19T13:06:46Z</time>
      </trkpt>
      <trkpt lat="43.44767" lon="1.84884">
        <ele>167.39999389648</ele>
        <time>2023-12-19T13:06:47Z</time>
      </trkpt>
      <trkpt lat="43.44778" lon="1.84846">
        <ele>165.80000305176</ele>
        <time>2023-12-19T13:07:13Z</time>
      </trkpt>
      <trkpt lat="43.44789" lon="1.84808">
        <ele>164.80000305176</ele>
        <time>2023-12-19T13:07:39Z</time>
      </trkpt>
      <trkpt lat="43.44792" lon="1.84776">
        <ele>163</ele>
        <time>2023-12-19T13:08:02Z</time>
      </trkpt>
      <trkpt lat="43.44792" lon="1.84755">
        <ele>160</ele>
        <time>2023-12-19T13:08:20Z</time>
      </trkpt>
      <trkpt lat="43.44789" lon="1.84721">
        <ele>156.80000305176</ele>
        <time>2023-12-19T13:08:42Z</time>
      </trkpt>
      <trkpt lat="43.44792" lon="1.84688">
        <ele>154</ele>
        <time>2023-12-19T13:09:05Z</time>
      </trkpt>
      <trkpt lat="43.44796" lon="1.84657">
        <ele>150.80000305176</ele>
        <time>2023-12-19T13:09:27Z</time>
      </trkpt>
      <trkpt lat="43.448" lon="1.84635">
        <ele>147.80000305176</ele>
        <time>2023-12-19T13:09:44Z</time>
      </trkpt>
      <trkpt lat="43.44805" lon="1.84608">
        <ele>144.80000305176</ele>
        <time>2023-12-19T13:10:03Z</time>
      </trkpt>
      <trkpt lat="43.44808" lon="1.84579">
        <ele>142.39999389648</ele>
        <time>2023-12-19T13:10:23Z</time>
      </trkpt>
      <trkpt lat="43.44809" lon="1.84556">
        <ele>140</ele>
        <time>2023-12-19T13:10:46Z</time>
      </trkpt>
      <trkpt lat="43.44809" lon="1.84556">
        <ele>140.19999694824</ele>
        <time>2023-12-19T13:11:10Z</time>
      </trkpt>
      <trkpt lat="43.44809" lon="1.84556">
        <ele>140.39999389648</ele>
        <time>2023-12-19T13:11:35Z</time>
      </trkpt>
      <trkpt lat="43.44809" lon="1.84552">
        <ele>140.39999389648</ele>
        <time>2023-12-19T13:11:53Z</time>
      </trkpt>
      <trkpt lat="43.44809" lon="1.84552">
        <ele>137.19999694824</ele>
        <time>2023-12-19T13:11:57Z</time>
      </trkpt>
      <trkpt lat="43.44809" lon="1.84552">
        <ele>136.19999694824</ele>
        <time>2023-12-19T13:11:59Z</time>
      </trkpt>
      <trkpt lat="43.44809" lon="1.84552">
        <ele>138.60000610352</ele>
        <time>2023-12-19T13:12:03Z</time>
      </trkpt>
      <trkpt lat="43.44809" lon="1.84552">
        <ele>142</ele>
        <time>2023-12-19T13:12:12Z</time>
      </trkpt>
      <trkpt lat="43.44809" lon="1.84552">
        <ele>142.80000305176</ele>
        <time>2023-12-19T13:12:14Z</time>
      </trkpt>
      <trkpt lat="43.44806" lon="1.84556">
        <ele>140.80000305176</ele>
        <time>2023-12-19T13:12:30Z</time>
      </trkpt>
      <trkpt lat="43.44807" lon="1.84557">
        <ele>141.19999694824</ele>
        <time>2023-12-19T13:12:52Z</time>
      </trkpt>
      <trkpt lat="43.44807" lon="1.84555">
        <ele>141.19999694824</ele>
        <time>2023-12-19T13:13:20Z</time>
      </trkpt>
      <trkpt lat="43.44809" lon="1.84549">
        <ele>142</ele>
        <time>2023-12-19T13:13:36Z</time>
      </trkpt>
      <trkpt lat="43.44812" lon="1.8452">
        <ele>139.39999389648</ele>
        <time>2023-12-19T13:14:00Z</time>
      </trkpt>
      <trkpt lat="43.44816" lon="1.84489">
        <ele>137.19999694824</ele>
        <time>2023-12-19T13:14:23Z</time>
      </trkpt>
      <trkpt lat="43.44821" lon="1.8445">
        <ele>134.60000610352</ele>
        <time>2023-12-19T13:14:51Z</time>
      </trkpt>
      <trkpt lat="43.44825" lon="1.84416">
        <ele>132.60000610352</ele>
        <time>2023-12-19T13:15:14Z</time>
      </trkpt>
      <trkpt lat="43.4483" lon="1.84377">
        <ele>129.39999389648</ele>
        <time>2023-12-19T13:15:40Z</time>
      </trkpt>
      <trkpt lat="43.44835" lon="1.84333">
        <ele>126.40000152588</ele>
        <time>2023-12-19T13:16:10Z</time>
      </trkpt>
      <trkpt lat="43.4484" lon="1.84293">
        <ele>123.59999847412</ele>
        <time>2023-12-19T13:16:37Z</time>
      </trkpt>
      <trkpt lat="43.44843" lon="1.8426">
        <ele>121.59999847412</ele>
        <time>2023-12-19T13:16:59Z</time>
      </trkpt>
      <trkpt lat="43.44842" lon="1.84225">
        <ele>119.59999847412</ele>
        <time>2023-12-19T13:17:22Z</time>
      </trkpt>
      <trkpt lat="43.44836" lon="1.84193">
        <ele>118.19999694824</ele>
        <time>2023-12-19T13:17:44Z</time>
      </trkpt>
      <trkpt lat="43.44834" lon="1.84179">
        <ele>116.59999847412</ele>
        <time>2023-12-19T13:18:03Z</time>
      </trkpt>
      <trkpt lat="43.44834" lon="1.84179">
        <ele>117</ele>
        <time>2023-12-19T13:18:21Z</time>
      </trkpt>
      <trkpt lat="43.44834" lon="1.84179">
        <ele>116.80000305176</ele>
        <time>2023-12-19T13:18:44Z</time>
      </trkpt>
      <trkpt lat="43.44834" lon="1.84178">
        <ele>117</ele>
        <time>2023-12-19T13:19:03Z</time>
      </trkpt>
      <trkpt lat="43.44833" lon="1.84173">
        <ele>117</ele>
        <time>2023-12-19T13:19:21Z</time>
      </trkpt>
      <trkpt lat="43.44832" lon="1.84171">
        <ele>117</ele>
        <time>2023-12-19T13:19:23Z</time>
      </trkpt>
      <trkpt lat="43.44832" lon="1.8417">
        <ele>117</ele>
        <time>2023-12-19T13:19:24Z</time>
      </trkpt>
      <trkpt lat="43.44831" lon="1.84167">
        <ele>116.80000305176</ele>
        <time>2023-12-19T13:19:26Z</time>
      </trkpt>
      <trkpt lat="43.44831" lon="1.84166">
        <ele>116.80000305176</ele>
        <time>2023-12-19T13:19:27Z</time>
      </trkpt>
      <trkpt lat="43.44834" lon="1.84149">
        <ele>117</ele>
        <time>2023-12-19T13:19:40Z</time>
      </trkpt>
      <trkpt lat="43.44835" lon="1.84148">
        <ele>117</ele>
        <time>2023-12-19T13:19:41Z</time>
      </trkpt>
      <trkpt lat="43.44836" lon="1.84147">
        <ele>117</ele>
        <time>2023-12-19T13:19:42Z</time>
      </trkpt>
      <trkpt lat="43.44837" lon="1.84147">
        <ele>117</ele>
        <time>2023-12-19T13:19:43Z</time>
      </trkpt>
      <trkpt lat="43.44838" lon="1.84145">
        <ele>117</ele>
        <time>2023-12-19T13:19:45Z</time>
      </trkpt>
      <trkpt lat="43.44839" lon="1.84143">
        <ele>116.80000305176</ele>
        <time>2023-12-19T13:19:46Z</time>
      </trkpt>
      <trkpt lat="43.44844" lon="1.84126">
        <ele>116.59999847412</ele>
        <time>2023-12-19T13:19:59Z</time>
      </trkpt>
      <trkpt lat="43.44845" lon="1.84125">
        <ele>116.59999847412</ele>
        <time>2023-12-19T13:20:00Z</time>
      </trkpt>
      <trkpt lat="43.44848" lon="1.84115">
        <ele>116.40000152588</ele>
        <time>2023-12-19T13:20:07Z</time>
      </trkpt>
      <trkpt lat="43.44853" lon="1.84089">
        <ele>115.80000305176</ele>
        <time>2023-12-19T13:20:25Z</time>
      </trkpt>
      <trkpt lat="43.44863" lon="1.84056">
        <ele>115.80000305176</ele>
        <time>2023-12-19T13:20:50Z</time>
      </trkpt>
      <trkpt lat="43.44872" lon="1.84028">
        <ele>115.80000305176</ele>
        <time>2023-12-19T13:21:12Z</time>
      </trkpt>
      <trkpt lat="43.4488" lon="1.84001">
        <ele>115.59999847412</ele>
        <time>2023-12-19T13:21:32Z</time>
      </trkpt>
      <trkpt lat="43.44889" lon="1.83972">
        <ele>115.59999847412</ele>
        <time>2023-12-19T13:21:53Z</time>
      </trkpt>
      <trkpt lat="43.44899" lon="1.83941">
        <ele>115.59999847412</ele>
        <time>2023-12-19T13:22:16Z</time>
      </trkpt>
      <trkpt lat="43.44908" lon="1.83912">
        <ele>115.80000305176</ele>
        <time>2023-12-19T13:22:37Z</time>
      </trkpt>
      <trkpt lat="43.44906" lon="1.83905">
        <ele>115.59999847412</ele>
        <time>2023-12-19T13:22:42Z</time>
      </trkpt>
      <trkpt lat="43.44906" lon="1.83904">
        <ele>115.59999847412</ele>
        <time>2023-12-19T13:22:43Z</time>
      </trkpt>
      <trkpt lat="43.44905" lon="1.83903">
        <ele>115.59999847412</ele>
        <time>2023-12-19T13:22:44Z</time>
      </trkpt>
      <trkpt lat="43.44905" lon="1.83902">
        <ele>115.59999847412</ele>
        <time>2023-12-19T13:22:45Z</time>
      </trkpt>
      <trkpt lat="43.44886" lon="1.83879">
        <ele>114.59999847412</ele>
        <time>2023-12-19T13:23:08Z</time>
      </trkpt>
      <trkpt lat="43.44866" lon="1.8385">
        <ele>114.40000152588</ele>
        <time>2023-12-19T13:23:33Z</time>
      </trkpt>
      <trkpt lat="43.44855" lon="1.83825">
        <ele>114.19999694824</ele>
        <time>2023-12-19T13:23:53Z</time>
      </trkpt>
      <trkpt lat="43.44847" lon="1.83801">
        <ele>113.19999694824</ele>
        <time>2023-12-19T13:24:12Z</time>
      </trkpt>
      <trkpt lat="43.4484" lon="1.83772">
        <ele>112.80000305176</ele>
        <time>2023-12-19T13:24:32Z</time>
      </trkpt>
      <trkpt lat="43.44831" lon="1.83736">
        <ele>112.40000152588</ele>
        <time>2023-12-19T13:24:57Z</time>
      </trkpt>
      <trkpt lat="43.44825" lon="1.83704">
        <ele>112.19999694824</ele>
        <time>2023-12-19T13:25:20Z</time>
      </trkpt>
      <trkpt lat="43.44823" lon="1.83662">
        <ele>112.19999694824</ele>
        <time>2023-12-19T13:25:48Z</time>
      </trkpt>
      <trkpt lat="43.44822" lon="1.83632">
        <ele>111.59999847412</ele>
        <time>2023-12-19T13:26:09Z</time>
      </trkpt>
      <trkpt lat="43.44822" lon="1.83604">
        <ele>111.19999694824</ele>
        <time>2023-12-19T13:26:28Z</time>
      </trkpt>
      <trkpt lat="43.44825" lon="1.83581">
        <ele>111</ele>
        <time>2023-12-19T13:26:47Z</time>
      </trkpt>
      <trkpt lat="43.44833" lon="1.83553">
        <ele>110.40000152588</ele>
        <time>2023-12-19T13:27:08Z</time>
      </trkpt>
      <trkpt lat="43.44841" lon="1.8353">
        <ele>110.19999694824</ele>
        <time>2023-12-19T13:27:26Z</time>
      </trkpt>
      <trkpt lat="43.44853" lon="1.83512">
        <ele>109.40000152588</ele>
        <time>2023-12-19T13:27:45Z</time>
      </trkpt>
      <trkpt lat="43.44875" lon="1.83469">
        <ele>108.59999847412</ele>
        <time>2023-12-19T13:28:18Z</time>
      </trkpt>
      <trkpt lat="43.44877" lon="1.83463">
        <ele>108.59999847412</ele>
        <time>2023-12-19T13:28:22Z</time>
      </trkpt>
      <trkpt lat="43.44879" lon="1.83445">
        <ele>108</ele>
        <time>2023-12-19T13:28:34Z</time>
      </trkpt>
      <trkpt lat="43.44879" lon="1.83441">
        <ele>107.80000305176</ele>
        <time>2023-12-19T13:28:36Z</time>
      </trkpt>
      <trkpt lat="43.44879" lon="1.83424">
        <ele>108</ele>
        <time>2023-12-19T13:28:47Z</time>
      </trkpt>
      <trkpt lat="43.44878" lon="1.83423">
        <ele>107.80000305176</ele>
        <time>2023-12-19T13:28:48Z</time>
      </trkpt>
      <trkpt lat="43.44878" lon="1.83421">
        <ele>107.80000305176</ele>
        <time>2023-12-19T13:28:49Z</time>
      </trkpt>
      <trkpt lat="43.44875" lon="1.83393">
        <ele>107</ele>
        <time>2023-12-19T13:29:08Z</time>
      </trkpt>
      <trkpt lat="43.44871" lon="1.83358">
        <ele>106.80000305176</ele>
        <time>2023-12-19T13:29:31Z</time>
      </trkpt>
      <trkpt lat="43.44867" lon="1.83322">
        <ele>106.40000152588</ele>
        <time>2023-12-19T13:29:55Z</time>
      </trkpt>
      <trkpt lat="43.44863" lon="1.83288">
        <ele>106</ele>
        <time>2023-12-19T13:30:17Z</time>
      </trkpt>
      <trkpt lat="43.4486" lon="1.83263">
        <ele>106.19999694824</ele>
        <time>2023-12-19T13:30:34Z</time>
      </trkpt>
      <trkpt lat="43.44859" lon="1.83257">
        <ele>106.19999694824</ele>
        <time>2023-12-19T13:30:38Z</time>
      </trkpt>
      <trkpt lat="43.44859" lon="1.83256">
        <ele>106.19999694824</ele>
        <time>2023-12-19T13:30:39Z</time>
      </trkpt>
      <trkpt lat="43.44859" lon="1.83254">
        <ele>106.19999694824</ele>
        <time>2023-12-19T13:30:40Z</time>
      </trkpt>
      <trkpt lat="43.44855" lon="1.83222">
        <ele>106</ele>
        <time>2023-12-19T13:31:01Z</time>
      </trkpt>
      <trkpt lat="43.44851" lon="1.83188">
        <ele>105.59999847412</ele>
        <time>2023-12-19T13:31:23Z</time>
      </trkpt>
      <trkpt lat="43.44848" lon="1.83155">
        <ele>105.19999694824</ele>
        <time>2023-12-19T13:31:45Z</time>
      </trkpt>
      <trkpt lat="43.44844" lon="1.83119">
        <ele>105</ele>
        <time>2023-12-19T13:32:09Z</time>
      </trkpt>
      <trkpt lat="43.44841" lon="1.83086">
        <ele>104.80000305176</ele>
        <time>2023-12-19T13:32:31Z</time>
      </trkpt>
      <trkpt lat="43.44836" lon="1.83049">
        <ele>104.40000152588</ele>
        <time>2023-12-19T13:32:55Z</time>
      </trkpt>
      <trkpt lat="43.4483" lon="1.8302">
        <ele>104.19999694824</ele>
        <time>2023-12-19T13:33:16Z</time>
      </trkpt>
      <trkpt lat="43.44826" lon="1.82987">
        <ele>103.40000152588</ele>
        <time>2023-12-19T13:33:39Z</time>
      </trkpt>
      <trkpt lat="43.44834" lon="1.82953">
        <ele>103.40000152588</ele>
        <time>2023-12-19T13:34:03Z</time>
      </trkpt>
      <trkpt lat="43.4484" lon="1.82923">
        <ele>103</ele>
        <time>2023-12-19T13:34:24Z</time>
      </trkpt>
      <trkpt lat="43.4484" lon="1.8289">
        <ele>102.80000305176</ele>
        <time>2023-12-19T13:34:46Z</time>
      </trkpt>
      <trkpt lat="43.4484" lon="1.82859">
        <ele>102.19999694824</ele>
        <time>2023-12-19T13:35:07Z</time>
      </trkpt>
      <trkpt lat="43.44859" lon="1.82849">
        <ele>102.59999847412</ele>
        <time>2023-12-19T13:35:26Z</time>
      </trkpt>
      <trkpt lat="43.4488" lon="1.82852">
        <ele>103.19999694824</ele>
        <time>2023-12-19T13:35:47Z</time>
      </trkpt>
      <trkpt lat="43.4488" lon="1.82853">
        <ele>103.40000152588</ele>
        <time>2023-12-19T13:36:04Z</time>
      </trkpt>
      <trkpt lat="43.4488" lon="1.82853">
        <ele>103.40000152588</ele>
        <time>2023-12-19T13:36:24Z</time>
      </trkpt>
      <trkpt lat="43.4488" lon="1.82853">
        <ele>103.59999847412</ele>
        <time>2023-12-19T13:36:48Z</time>
      </trkpt>
      <trkpt lat="43.4488" lon="1.82853">
        <ele>104</ele>
        <time>2023-12-19T13:37:13Z</time>
      </trkpt>
      <trkpt lat="43.4488" lon="1.82853">
        <ele>104.19999694824</ele>
        <time>2023-12-19T13:37:43Z</time>
      </trkpt>
      <trkpt lat="43.4488" lon="1.82853">
        <ele>104.59999847412</ele>
        <time>2023-12-19T13:38:08Z</time>
      </trkpt>
      <trkpt lat="43.44879" lon="1.82853">
        <ele>104.80000305176</ele>
        <time>2023-12-19T13:38:30Z</time>
      </trkpt>
      <trkpt lat="43.4488" lon="1.82852">
        <ele>105.19999694824</ele>
        <time>2023-12-19T13:38:54Z</time>
      </trkpt>
      <trkpt lat="43.44881" lon="1.82851">
        <ele>106</ele>
        <time>2023-12-19T13:39:12Z</time>
      </trkpt>
      <trkpt lat="43.44881" lon="1.82851">
        <ele>107</ele>
        <time>2023-12-19T13:39:33Z</time>
      </trkpt>
      <trkpt lat="43.44881" lon="1.82851">
        <ele>106.40000152588</ele>
        <time>2023-12-19T13:39:57Z</time>
      </trkpt>
      <trkpt lat="43.44893" lon="1.82852">
        <ele>107.19999694824</ele>
        <time>2023-12-19T13:40:12Z</time>
      </trkpt>
      <trkpt lat="43.44908" lon="1.82857">
        <ele>108.59999847412</ele>
        <time>2023-12-19T13:40:29Z</time>
      </trkpt>
      <trkpt lat="43.44918" lon="1.82869">
        <ele>109.40000152588</ele>
        <time>2023-12-19T13:40:43Z</time>
      </trkpt>
      <trkpt lat="43.44919" lon="1.82871">
        <ele>109.59999847412</ele>
        <time>2023-12-19T13:40:45Z</time>
      </trkpt>
      <trkpt lat="43.44927" lon="1.82888">
        <ele>110.80000305176</ele>
        <time>2023-12-19T13:41:02Z</time>
      </trkpt>
      <trkpt lat="43.44922" lon="1.82905">
        <ele>112.40000152588</ele>
        <time>2023-12-19T13:41:17Z</time>
      </trkpt>
      <trkpt lat="43.44923" lon="1.82923">
        <ele>114.19999694824</ele>
        <time>2023-12-19T13:41:32Z</time>
      </trkpt>
      <trkpt lat="43.44927" lon="1.82943">
        <ele>116.19999694824</ele>
        <time>2023-12-19T13:41:49Z</time>
      </trkpt>
      <trkpt lat="43.44932" lon="1.82959">
        <ele>118.19999694824</ele>
        <time>2023-12-19T13:42:05Z</time>
      </trkpt>
      <trkpt lat="43.44939" lon="1.82976">
        <ele>120.19999694824</ele>
        <time>2023-12-19T13:42:24Z</time>
      </trkpt>
      <trkpt lat="43.44949" lon="1.82987">
        <ele>122.40000152588</ele>
        <time>2023-12-19T13:42:41Z</time>
      </trkpt>
      <trkpt lat="43.44961" lon="1.82992">
        <ele>124.80000305176</ele>
        <time>2023-12-19T13:42:58Z</time>
      </trkpt>
      <trkpt lat="43.44974" lon="1.82995">
        <ele>126.80000305176</ele>
        <time>2023-12-19T13:43:14Z</time>
      </trkpt>
      <trkpt lat="43.44988" lon="1.82998">
        <ele>129.39999389648</ele>
        <time>2023-12-19T13:43:34Z</time>
      </trkpt>
      <trkpt lat="43.45001" lon="1.83001">
        <ele>131.80000305176</ele>
        <time>2023-12-19T13:43:52Z</time>
      </trkpt>
      <trkpt lat="43.45021" lon="1.83003">
        <ele>134.39999389648</ele>
        <time>2023-12-19T13:44:21Z</time>
      </trkpt>
      <trkpt lat="43.45037" lon="1.83002">
        <ele>136.19999694824</ele>
        <time>2023-12-19T13:44:38Z</time>
      </trkpt>
      <trkpt lat="43.45048" lon="1.83001">
        <ele>137.60000610352</ele>
        <time>2023-12-19T13:44:49Z</time>
      </trkpt>
      <trkpt lat="43.45049" lon="1.83">
        <ele>137.60000610352</ele>
        <time>2023-12-19T13:44:50Z</time>
      </trkpt>
      <trkpt lat="43.45063" lon="1.82998">
        <ele>139</ele>
        <time>2023-12-19T13:45:05Z</time>
      </trkpt>
      <trkpt lat="43.4507" lon="1.82997">
        <ele>140.39999389648</ele>
        <time>2023-12-19T13:45:20Z</time>
      </trkpt>
      <trkpt lat="43.4507" lon="1.82997">
        <ele>140.60000610352</ele>
        <time>2023-12-19T13:45:45Z</time>
      </trkpt>
      <trkpt lat="43.4507" lon="1.82997">
        <ele>141.19999694824</ele>
        <time>2023-12-19T13:46:14Z</time>
      </trkpt>
      <trkpt lat="43.45073" lon="1.83">
        <ele>143</ele>
        <time>2023-12-19T13:46:42Z</time>
      </trkpt>
      <trkpt lat="43.45073" lon="1.83002">
        <ele>141.80000305176</ele>
        <time>2023-12-19T13:47:00Z</time>
      </trkpt>
      <trkpt lat="43.45074" lon="1.83002">
        <ele>142.60000610352</ele>
        <time>2023-12-19T13:47:19Z</time>
      </trkpt>
      <trkpt lat="43.45074" lon="1.83002">
        <ele>143.19999694824</ele>
        <time>2023-12-19T13:47:48Z</time>
      </trkpt>
      <trkpt lat="43.45074" lon="1.83002">
        <ele>142</ele>
        <time>2023-12-19T13:48:11Z</time>
      </trkpt>
      <trkpt lat="43.45082" lon="1.83008">
        <ele>142.80000305176</ele>
        <time>2023-12-19T13:48:24Z</time>
      </trkpt>
      <trkpt lat="43.45094" lon="1.83019">
        <ele>144.19999694824</ele>
        <time>2023-12-19T13:48:41Z</time>
      </trkpt>
      <trkpt lat="43.45108" lon="1.83031">
        <ele>147.39999389648</ele>
        <time>2023-12-19T13:48:59Z</time>
      </trkpt>
      <trkpt lat="43.45121" lon="1.83046">
        <ele>150</ele>
        <time>2023-12-19T13:49:17Z</time>
      </trkpt>
      <trkpt lat="43.45133" lon="1.83061">
        <ele>152</ele>
        <time>2023-12-19T13:49:34Z</time>
      </trkpt>
      <trkpt lat="43.45151" lon="1.83089">
        <ele>154.39999389648</ele>
        <time>2023-12-19T13:49:57Z</time>
      </trkpt>
      <trkpt lat="43.45168" lon="1.83118">
        <ele>154.80000305176</ele>
        <time>2023-12-19T13:50:21Z</time>
      </trkpt>
      <trkpt lat="43.45187" lon="1.8315">
        <ele>153.60000610352</ele>
        <time>2023-12-19T13:50:47Z</time>
      </trkpt>
      <trkpt lat="43.45204" lon="1.83177">
        <ele>152</ele>
        <time>2023-12-19T13:51:09Z</time>
      </trkpt>
      <trkpt lat="43.4522" lon="1.83203">
        <ele>151.19999694824</ele>
        <time>2023-12-19T13:51:30Z</time>
      </trkpt>
      <trkpt lat="43.4524" lon="1.83233">
        <ele>151.19999694824</ele>
        <time>2023-12-19T13:51:55Z</time>
      </trkpt>
      <trkpt lat="43.4526" lon="1.83253">
        <ele>152.19999694824</ele>
        <time>2023-12-19T13:52:16Z</time>
      </trkpt>
      <trkpt lat="43.45269" lon="1.83262">
        <ele>153.39999389648</ele>
        <time>2023-12-19T13:52:26Z</time>
      </trkpt>
      <trkpt lat="43.4527" lon="1.83262">
        <ele>153.39999389648</ele>
        <time>2023-12-19T13:52:27Z</time>
      </trkpt>
      <trkpt lat="43.45271" lon="1.83263">
        <ele>153.39999389648</ele>
        <time>2023-12-19T13:52:28Z</time>
      </trkpt>
      <trkpt lat="43.45292" lon="1.83281">
        <ele>155.60000610352</ele>
        <time>2023-12-19T13:52:50Z</time>
      </trkpt>
      <trkpt lat="43.45311" lon="1.83298">
        <ele>157.80000305176</ele>
        <time>2023-12-19T13:53:10Z</time>
      </trkpt>
      <trkpt lat="43.45329" lon="1.83312">
        <ele>159.19999694824</ele>
        <time>2023-12-19T13:53:27Z</time>
      </trkpt>
      <trkpt lat="43.45343" lon="1.83335">
        <ele>160.80000305176</ele>
        <time>2023-12-19T13:53:47Z</time>
      </trkpt>
      <trkpt lat="43.45353" lon="1.83375">
        <ele>162.19999694824</ele>
        <time>2023-12-19T13:54:13Z</time>
      </trkpt>
      <trkpt lat="43.45365" lon="1.83411">
        <ele>161.19999694824</ele>
        <time>2023-12-19T13:54:37Z</time>
      </trkpt>
      <trkpt lat="43.45381" lon="1.83451">
        <ele>159.80000305176</ele>
        <time>2023-12-19T13:55:04Z</time>
      </trkpt>
      <trkpt lat="43.45395" lon="1.83486">
        <ele>159.60000610352</ele>
        <time>2023-12-19T13:55:28Z</time>
      </trkpt>
      <trkpt lat="43.45419" lon="1.83513">
        <ele>160.60000610352</ele>
        <time>2023-12-19T13:55:52Z</time>
      </trkpt>
      <trkpt lat="43.45448" lon="1.83535">
        <ele>161.80000305176</ele>
        <time>2023-12-19T13:56:18Z</time>
      </trkpt>
      <trkpt lat="43.45478" lon="1.83557">
        <ele>161.39999389648</ele>
        <time>2023-12-19T13:56:46Z</time>
      </trkpt>
      <trkpt lat="43.45504" lon="1.83576">
        <ele>161.19999694824</ele>
        <time>2023-12-19T13:57:11Z</time>
      </trkpt>
      <trkpt lat="43.45519" lon="1.83587">
        <ele>161.39999389648</ele>
        <time>2023-12-19T13:57:27Z</time>
      </trkpt>
      <trkpt lat="43.4553" lon="1.83597">
        <ele>161.80000305176</ele>
        <time>2023-12-19T13:57:42Z</time>
      </trkpt>
      <trkpt lat="43.45531" lon="1.83598">
        <ele>162</ele>
        <time>2023-12-19T13:57:43Z</time>
      </trkpt>
      <trkpt lat="43.45532" lon="1.836">
        <ele>162</ele>
        <time>2023-12-19T13:57:44Z</time>
      </trkpt>
      <trkpt lat="43.45532" lon="1.83601">
        <ele>162</ele>
        <time>2023-12-19T13:57:45Z</time>
      </trkpt>
      <trkpt lat="43.45533" lon="1.83602">
        <ele>162.19999694824</ele>
        <time>2023-12-19T13:57:46Z</time>
      </trkpt>
      <trkpt lat="43.45534" lon="1.83603">
        <ele>162.19999694824</ele>
        <time>2023-12-19T13:57:47Z</time>
      </trkpt>
      <trkpt lat="43.45535" lon="1.83604">
        <ele>162.19999694824</ele>
        <time>2023-12-19T13:57:48Z</time>
      </trkpt>
      <trkpt lat="43.45544" lon="1.83623">
        <ele>163</ele>
        <time>2023-12-19T13:58:03Z</time>
      </trkpt>
      <trkpt lat="43.45546" lon="1.83626">
        <ele>163.80000305176</ele>
        <time>2023-12-19T13:58:17Z</time>
      </trkpt>
      <trkpt lat="43.45549" lon="1.83625">
        <ele>164.19999694824</ele>
        <time>2023-12-19T13:58:32Z</time>
      </trkpt>
      <trkpt lat="43.4555" lon="1.83624">
        <ele>164</ele>
        <time>2023-12-19T13:58:33Z</time>
      </trkpt>
      <trkpt lat="43.45551" lon="1.83624">
        <ele>164</ele>
        <time>2023-12-19T13:58:34Z</time>
      </trkpt>
      <trkpt lat="43.45552" lon="1.83624">
        <ele>164</ele>
        <time>2023-12-19T13:58:35Z</time>
      </trkpt>
      <trkpt lat="43.45553" lon="1.83624">
        <ele>164</ele>
        <time>2023-12-19T13:58:36Z</time>
      </trkpt>
      <trkpt lat="43.45577" lon="1.83614">
        <ele>164.80000305176</ele>
        <time>2023-12-19T13:58:57Z</time>
      </trkpt>
      <trkpt lat="43.45604" lon="1.83604">
        <ele>166.39999389648</ele>
        <time>2023-12-19T13:59:20Z</time>
      </trkpt>
      <trkpt lat="43.45625" lon="1.83588">
        <ele>168.19999694824</ele>
        <time>2023-12-19T13:59:42Z</time>
      </trkpt>
      <trkpt lat="43.45639" lon="1.83581">
        <ele>169.60000610352</ele>
        <time>2023-12-19T14:00:00Z</time>
      </trkpt>
      <trkpt lat="43.45645" lon="1.8358">
        <ele>168.39999389648</ele>
        <time>2023-12-19T14:00:15Z</time>
      </trkpt>
      <trkpt lat="43.45645" lon="1.8358">
        <ele>172</ele>
        <time>2023-12-19T14:00:20Z</time>
      </trkpt>
      <trkpt lat="43.45645" lon="1.8358">
        <ele>172.19999694824</ele>
        <time>2023-12-19T14:00:21Z</time>
      </trkpt>
      <trkpt lat="43.45648" lon="1.83587">
        <ele>170.60000610352</ele>
        <time>2023-12-19T14:00:36Z</time>
      </trkpt>
      <trkpt lat="43.45651" lon="1.83593">
        <ele>171.60000610352</ele>
        <time>2023-12-19T14:00:53Z</time>
      </trkpt>
      <trkpt lat="43.45651" lon="1.83594">
        <ele>167.80000305176</ele>
        <time>2023-12-19T14:01:03Z</time>
      </trkpt>
      <trkpt lat="43.45651" lon="1.83594">
        <ele>167.39999389648</ele>
        <time>2023-12-19T14:01:04Z</time>
      </trkpt>
      <trkpt lat="43.45652" lon="1.83594">
        <ele>171.19999694824</ele>
        <time>2023-12-19T14:01:15Z</time>
      </trkpt>
      <trkpt lat="43.45652" lon="1.83594">
        <ele>172.19999694824</ele>
        <time>2023-12-19T14:01:17Z</time>
      </trkpt>
      <trkpt lat="43.45652" lon="1.83594">
        <ele>175.60000610352</ele>
        <time>2023-12-19T14:01:24Z</time>
      </trkpt>
      <trkpt lat="43.45652" lon="1.83594">
        <ele>176</ele>
        <time>2023-12-19T14:01:25Z</time>
      </trkpt>
      <trkpt lat="43.45652" lon="1.83594">
        <ele>172.60000610352</ele>
        <time>2023-12-19T14:01:31Z</time>
      </trkpt>
      <trkpt lat="43.45652" lon="1.83594">
        <ele>171.80000305176</ele>
        <time>2023-12-19T14:01:33Z</time>
      </trkpt>
      <trkpt lat="43.45652" lon="1.83594">
        <ele>173.80000305176</ele>
        <time>2023-12-19T14:01:53Z</time>
      </trkpt>
      <trkpt lat="43.45652" lon="1.83594">
        <ele>170.60000610352</ele>
        <time>2023-12-19T14:02:17Z</time>
      </trkpt>
      <trkpt lat="43.45652" lon="1.83593">
        <ele>170.19999694824</ele>
        <time>2023-12-19T14:02:44Z</time>
      </trkpt>
      <trkpt lat="43.45652" lon="1.83593">
        <ele>173.39999389648</ele>
        <time>2023-12-19T14:02:53Z</time>
      </trkpt>
      <trkpt lat="43.45651" lon="1.83594">
        <ele>176.19999694824</ele>
        <time>2023-12-19T14:03:21Z</time>
      </trkpt>
      <trkpt lat="43.45651" lon="1.83594">
        <ele>173.60000610352</ele>
        <time>2023-12-19T14:03:27Z</time>
      </trkpt>
      <trkpt lat="43.4565" lon="1.83595">
        <ele>170.80000305176</ele>
        <time>2023-12-19T14:03:43Z</time>
      </trkpt>
      <trkpt lat="43.4565" lon="1.83594">
        <ele>172</ele>
        <time>2023-12-19T14:04:06Z</time>
      </trkpt>
      <trkpt lat="43.4565" lon="1.83595">
        <ele>175.80000305176</ele>
        <time>2023-12-19T14:04:13Z</time>
      </trkpt>
      <trkpt lat="43.4565" lon="1.83595">
        <ele>175.80000305176</ele>
        <time>2023-12-19T14:04:14Z</time>
      </trkpt>
      <trkpt lat="43.4565" lon="1.83594">
        <ele>172.80000305176</ele>
        <time>2023-12-19T14:04:33Z</time>
      </trkpt>
      <trkpt lat="43.45652" lon="1.83597">
        <ele>174.19999694824</ele>
        <time>2023-12-19T14:05:01Z</time>
      </trkpt>
      <trkpt lat="43.45651" lon="1.8361">
        <ele>176.39999389648</ele>
        <time>2023-12-19T14:05:16Z</time>
      </trkpt>
      <trkpt lat="43.4566" lon="1.83621">
        <ele>174.39999389648</ele>
        <time>2023-12-19T14:05:37Z</time>
      </trkpt>
      <trkpt lat="43.45679" lon="1.83632">
        <ele>176</ele>
        <time>2023-12-19T14:06:00Z</time>
      </trkpt>
      <trkpt lat="43.45688" lon="1.83642">
        <ele>173</ele>
        <time>2023-12-19T14:06:15Z</time>
      </trkpt>
      <trkpt lat="43.45705" lon="1.83622">
        <ele>174.39999389648</ele>
        <time>2023-12-19T14:06:35Z</time>
      </trkpt>
      <trkpt lat="43.45714" lon="1.83618">
        <ele>171.80000305176</ele>
        <time>2023-12-19T14:06:53Z</time>
      </trkpt>
      <trkpt lat="43.45715" lon="1.83618">
        <ele>172.19999694824</ele>
        <time>2023-12-19T14:07:28Z</time>
      </trkpt>
      <trkpt lat="43.45715" lon="1.83617">
        <ele>171.80000305176</ele>
        <time>2023-12-19T14:07:47Z</time>
      </trkpt>
      <trkpt lat="43.45715" lon="1.83618">
        <ele>171.80000305176</ele>
        <time>2023-12-19T14:08:19Z</time>
      </trkpt>
      <trkpt lat="43.45715" lon="1.83617">
        <ele>174.39999389648</ele>
        <time>2023-12-19T14:08:28Z</time>
      </trkpt>
      <trkpt lat="43.45714" lon="1.83628">
        <ele>172.60000610352</ele>
        <time>2023-12-19T14:08:45Z</time>
      </trkpt>
      <trkpt lat="43.45715" lon="1.83632">
        <ele>172.19999694824</ele>
        <time>2023-12-19T14:09:02Z</time>
      </trkpt>
      <trkpt lat="43.45716" lon="1.83632">
        <ele>172</ele>
        <time>2023-12-19T14:09:30Z</time>
      </trkpt>
      <trkpt lat="43.45716" lon="1.83632">
        <ele>171.80000305176</ele>
        <time>2023-12-19T14:09:55Z</time>
      </trkpt>
      <trkpt lat="43.45716" lon="1.83631">
        <ele>172.60000610352</ele>
        <time>2023-12-19T14:10:25Z</time>
      </trkpt>
      <trkpt lat="43.45715" lon="1.83631">
        <ele>172.60000610352</ele>
        <time>2023-12-19T14:11:10Z</time>
      </trkpt>
      <trkpt lat="43.45716" lon="1.83631">
        <ele>172.60000610352</ele>
        <time>2023-12-19T14:11:40Z</time>
      </trkpt>
      <trkpt lat="43.45716" lon="1.83631">
        <ele>172.80000305176</ele>
        <time>2023-12-19T14:12:13Z</time>
      </trkpt>
      <trkpt lat="43.45716" lon="1.83631">
        <ele>168.60000610352</ele>
        <time>2023-12-19T14:12:38Z</time>
      </trkpt>
      <trkpt lat="43.45716" lon="1.83631">
        <ele>165</ele>
        <time>2023-12-19T14:12:40Z</time>
      </trkpt>
      <trkpt lat="43.45716" lon="1.83631">
        <ele>169.39999389648</ele>
        <time>2023-12-19T14:12:44Z</time>
      </trkpt>
      <trkpt lat="43.45716" lon="1.83631">
        <ele>172.19999694824</ele>
        <time>2023-12-19T14:12:48Z</time>
      </trkpt>
      <trkpt lat="43.45716" lon="1.8363">
        <ele>176.80000305176</ele>
        <time>2023-12-19T14:12:52Z</time>
      </trkpt>
      <trkpt lat="43.45717" lon="1.8362">
        <ele>174.60000610352</ele>
        <time>2023-12-19T14:13:03Z</time>
      </trkpt>
      <trkpt lat="43.45717" lon="1.83618">
        <ele>204.19999694824</ele>
        <time>2023-12-19T14:13:26Z</time>
      </trkpt>
    </trkseg>
  </trk>
</gpx>